FDX3125 KMEM-PANC
Flight info
| Callsign | FDX3125 |
|---|---|
| Flight time | 6h 43m |
| Altitude | 32000 |
| Route | JTEEE5 ODATE DCT KK51I DCT HIBAV DCT KP75E DCT KP87C DCT KP12Y DCT ISN DCT ITREK DCT GUDOG DCT YEGGA DCT YQU DCT 57N125W DCT MITOM DCT DEEJA NCA10 YAK J501 JOH PTERS3 |
| Aircraft | B77L/H-SDE1E2E3FGHIJ2J3J4J5M1RWXY/LB1D1 |
Departure
| Time | 2026-05-07 17:09 |
|---|---|
| Airport | Memphis International Airport (KMEM) |
Arrival
| Time | 2026-05-07 23:53 |
|---|---|
| Airport | Ted Stevens Anchorage International Airport (PANC) |
| Time | Latitude | Longitude | Altitude | Speed | Heading |
|---|---|---|---|---|---|
| 2026-05-07 16:41 | 35.06690 | -89.97636 | 335 ft | 0 kts | 0° |
| 2026-05-07 16:48 | 35.06684 | -89.97636 | 330 ft | 4 kts | 359° |
| 2026-05-07 16:48 | 35.06658 | -89.97632 | 330 ft | 4 kts | 335° |
| 2026-05-07 16:48 | 35.06639 | -89.97613 | 330 ft | 4 kts | 292° |
| 2026-05-07 16:48 | 35.06635 | -89.97595 | 330 ft | 0 kts | 270° |
| 2026-05-07 16:55 | 35.06635 | -89.97607 | 335 ft | 7 kts | 270° |
| 2026-05-07 16:55 | 35.06633 | -89.97725 | 335 ft | 16 kts | 263° |
| 2026-05-07 16:55 | 35.06548 | -89.97791 | 332 ft | 16 kts | 177° |
| 2026-05-07 16:56 | 35.06437 | -89.97788 | 332 ft | 16 kts | 179° |
| 2026-05-07 16:56 | 35.06324 | -89.97786 | 332 ft | 16 kts | 179° |
| 2026-05-07 16:56 | 35.06098 | -89.97786 | 333 ft | 16 kts | 179° |
| 2026-05-07 16:57 | 35.05985 | -89.97784 | 333 ft | 16 kts | 179° |
| 2026-05-07 16:57 | 35.05872 | -89.97782 | 333 ft | 16 kts | 179° |
| 2026-05-07 16:57 | 35.05760 | -89.97780 | 333 ft | 16 kts | 179° |
| 2026-05-07 16:57 | 35.05676 | -89.97847 | 333 ft | 16 kts | 263° |
| 2026-05-07 16:58 | 35.05679 | -89.97985 | 330 ft | 16 kts | 271° |
| 2026-05-07 16:58 | 35.05682 | -89.98124 | 332 ft | 16 kts | 271° |
| 2026-05-07 16:58 | 35.05686 | -89.98262 | 335 ft | 16 kts | 271° |
| 2026-05-07 16:58 | 35.05689 | -89.98400 | 331 ft | 16 kts | 271° |
| 2026-05-07 16:59 | 35.05641 | -89.98506 | 331 ft | 16 kts | 189° |
| 2026-05-07 16:59 | 35.05527 | -89.98506 | 332 ft | 16 kts | 179° |
| 2026-05-07 16:59 | 35.05413 | -89.98506 | 331 ft | 16 kts | 180° |
| 2026-05-07 16:59 | 35.05300 | -89.98507 | 331 ft | 16 kts | 180° |
| 2026-05-07 17:00 | 35.05185 | -89.98508 | 332 ft | 17 kts | 182° |
| 2026-05-07 17:00 | 35.05066 | -89.98546 | 333 ft | 19 kts | 204° |
| 2026-05-07 17:00 | 35.04926 | -89.98607 | 333 ft | 23 kts | 184° |
| 2026-05-07 17:00 | 35.04748 | -89.98605 | 333 ft | 28 kts | 179° |
| 2026-05-07 17:01 | 35.04544 | -89.98599 | 332 ft | 32 kts | 178° |
| 2026-05-07 17:01 | 35.04311 | -89.98591 | 332 ft | 35 kts | 178° |
| 2026-05-07 17:01 | 35.04055 | -89.98589 | 332 ft | 38 kts | 179° |
| 2026-05-07 17:01 | 35.03780 | -89.98581 | 333 ft | 41 kts | 179° |
| 2026-05-07 17:02 | 35.03489 | -89.98574 | 331 ft | 43 kts | 178° |
| 2026-05-07 17:02 | 35.03178 | -89.98569 | 333 ft | 45 kts | 180° |
| 2026-05-07 17:02 | 35.02895 | -89.98563 | 332 ft | 36 kts | 179° |
| 2026-05-07 17:02 | 35.02651 | -89.98558 | 332 ft | 30 kts | 179° |
| 2026-05-07 17:03 | 35.02502 | -89.98556 | 331 ft | 3 kts | 180° |
| 2026-05-07 17:03 | 35.02496 | -89.98556 | 329 ft | 0 kts | 180° |
| 2026-05-07 17:06 | 35.02487 | -89.98556 | 332 ft | 6 kts | 180° |
| 2026-05-07 17:07 | 35.02436 | -89.98563 | 331 ft | 8 kts | 201° |
| 2026-05-07 17:07 | 35.02404 | -89.98611 | 332 ft | 8 kts | 255° |
| 2026-05-07 17:07 | 35.02415 | -89.98673 | 330 ft | 9 kts | 309° |
| 2026-05-07 17:07 | 35.02497 | -89.98694 | 331 ft | 19 kts | 359° |
| 2026-05-07 17:08 | 35.02601 | -89.98695 | 329 ft | 0 kts | 0° |
| 2026-05-07 17:08 | 35.02602 | -89.98695 | 328 ft | 1 kts | 0° |
| 2026-05-07 17:09 | 35.02744 | -89.98696 | 327 ft | 56 kts | 358° |
| 2026-05-07 17:09 | 35.03440 | -89.98714 | 334 ft | 143 kts | 359° |
| 2026-05-07 17:09 | 35.04689 | -89.98757 | 482 ft | 202 kts | 358° |
| 2026-05-07 17:09 | 35.06157 | -89.98784 | 1290 ft | 216 kts | 0° |
| 2026-05-07 17:10 | 35.07710 | -89.98776 | 1985 ft | 232 kts | 2° |
| 2026-05-07 17:10 | 35.09371 | -89.98638 | 2525 ft | 245 kts | 7° |
| 2026-05-07 17:10 | 35.11075 | -89.98442 | 3320 ft | 244 kts | 0° |
| 2026-05-07 17:10 | 35.12760 | -89.98633 | 4126 ft | 244 kts | 351° |
| 2026-05-07 17:11 | 35.14468 | -89.98927 | 4878 ft | 250 kts | 353° |
| 2026-05-07 17:11 | 35.16175 | -89.99385 | 5465 ft | 255 kts | 342° |
| 2026-05-07 17:11 | 35.17894 | -89.99991 | 6170 ft | 260 kts | 344° |
| 2026-05-07 17:11 | 35.19622 | -90.00478 | 6908 ft | 262 kts | 345° |
| 2026-05-07 17:12 | 35.21422 | -90.00901 | 7643 ft | 264 kts | 345° |
| 2026-05-07 17:12 | 35.23242 | -90.01289 | 8322 ft | 268 kts | 347° |
| 2026-05-07 17:12 | 35.25131 | -90.01455 | 9023 ft | 275 kts | 349° |
| 2026-05-07 17:12 | 35.27058 | -90.01542 | 9823 ft | 278 kts | 349° |
| 2026-05-07 17:13 | 35.29012 | -90.01618 | 10539 ft | 284 kts | 348° |
| 2026-05-07 17:13 | 35.31051 | -90.01725 | 10744 ft | 305 kts | 348° |
| 2026-05-07 17:13 | 35.33245 | -90.01853 | 10937 ft | 327 kts | 348° |
| 2026-05-07 17:13 | 35.35592 | -90.01990 | 11104 ft | 349 kts | 349° |
| 2026-05-07 17:14 | 35.38080 | -90.02131 | 11480 ft | 364 kts | 349° |
| 2026-05-07 17:14 | 35.40605 | -90.02271 | 12044 ft | 373 kts | 349° |
| 2026-05-07 17:14 | 35.43217 | -90.02416 | 12726 ft | 378 kts | 349° |
| 2026-05-07 17:14 | 35.45865 | -90.02566 | 13481 ft | 382 kts | 348° |
| 2026-05-07 17:15 | 35.48528 | -90.02721 | 14170 ft | 386 kts | 348° |
| 2026-05-07 17:15 | 35.51225 | -90.02881 | 14872 ft | 389 kts | 348° |
| 2026-05-07 17:15 | 35.53937 | -90.03043 | 15588 ft | 392 kts | 348° |
| 2026-05-07 17:15 | 35.56674 | -90.03208 | 16234 ft | 396 kts | 349° |
| 2026-05-07 17:16 | 35.59445 | -90.03376 | 16841 ft | 401 kts | 349° |
| 2026-05-07 17:16 | 35.62248 | -90.03546 | 17459 ft | 405 kts | 349° |
| 2026-05-07 17:16 | 35.65075 | -90.03742 | 18076 ft | 408 kts | 348° |
| 2026-05-07 17:16 | 35.67918 | -90.03994 | 18637 ft | 411 kts | 348° |
| 2026-05-07 17:17 | 35.70788 | -90.04257 | 19172 ft | 415 kts | 347° |
| 2026-05-07 17:17 | 35.73685 | -90.04514 | 19706 ft | 419 kts | 347° |
| 2026-05-07 17:17 | 35.76561 | -90.04780 | 20269 ft | 417 kts | 346° |
| 2026-05-07 17:17 | 35.78472 | -90.05214 | 20569 ft | 410 kts | 335° |
| 2026-05-07 17:18 | 35.81754 | -90.07284 | 21058 ft | 400 kts | 322° |
| 2026-05-07 17:18 | 35.84170 | -90.09047 | 21450 ft | 406 kts | 323° |
| 2026-05-07 17:18 | 35.86633 | -90.10784 | 22018 ft | 409 kts | 323° |
| 2026-05-07 17:18 | 35.89113 | -90.12508 | 22573 ft | 411 kts | 323° |
| 2026-05-07 17:19 | 35.90803 | -90.13676 | 22925 ft | 413 kts | 323° |
| 2026-05-07 17:19 | 35.93321 | -90.15415 | 23404 ft | 416 kts | 323° |
| 2026-05-07 17:19 | 35.95856 | -90.17167 | 23845 ft | 420 kts | 323° |
| 2026-05-07 17:19 | 35.98412 | -90.18933 | 24289 ft | 421 kts | 322° |
| 2026-05-07 17:20 | 36.00935 | -90.20678 | 24770 ft | 422 kts | 322° |
| 2026-05-07 17:20 | 36.03529 | -90.22473 | 25249 ft | 423 kts | 321° |
| 2026-05-07 17:20 | 36.06068 | -90.24233 | 25703 ft | 424 kts | 321° |
| 2026-05-07 17:20 | 36.08641 | -90.26019 | 26150 ft | 425 kts | 320° |
| 2026-05-07 17:21 | 36.11221 | -90.27813 | 26582 ft | 426 kts | 320° |
| 2026-05-07 17:21 | 36.13814 | -90.29617 | 27026 ft | 428 kts | 320° |
| 2026-05-07 17:21 | 36.16413 | -90.31426 | 27451 ft | 429 kts | 319° |
| 2026-05-07 17:21 | 36.19019 | -90.33242 | 27867 ft | 431 kts | 319° |
| 2026-05-07 17:22 | 36.21635 | -90.35066 | 28280 ft | 432 kts | 319° |
| 2026-05-07 17:22 | 36.24256 | -90.36895 | 28671 ft | 433 kts | 318° |
| 2026-05-07 17:22 | 36.26884 | -90.38730 | 29111 ft | 434 kts | 319° |
| 2026-05-07 17:22 | 36.29527 | -90.40579 | 29437 ft | 437 kts | 319° |
| 2026-05-07 17:23 | 36.32180 | -90.42434 | 29778 ft | 439 kts | 319° |
| 2026-05-07 17:23 | 36.34846 | -90.44299 | 30131 ft | 440 kts | 319° |
| 2026-05-07 17:23 | 36.37484 | -90.46145 | 30411 ft | 440 kts | 318° |
| 2026-05-07 17:23 | 36.40145 | -90.48007 | 30774 ft | 439 kts | 318° |
| 2026-05-07 17:24 | 36.42804 | -90.49867 | 31166 ft | 437 kts | 318° |
| 2026-05-07 17:24 | 36.45448 | -90.51718 | 31539 ft | 435 kts | 317° |
| 2026-05-07 17:24 | 36.48076 | -90.53562 | 31886 ft | 434 kts | 317° |
| 2026-05-07 17:24 | 36.50704 | -90.55412 | 32101 ft | 436 kts | 318° |
| 2026-05-07 17:25 | 36.55991 | -90.59141 | 32111 ft | 436 kts | 318° |
| 2026-05-07 17:25 | 36.61253 | -90.62846 | 32125 ft | 433 kts | 318° |
| 2026-05-07 17:26 | 36.66448 | -90.66515 | 32124 ft | 431 kts | 318° |
| 2026-05-07 17:26 | 36.71670 | -90.70209 | 32124 ft | 431 kts | 317° |
| 2026-05-07 17:27 | 36.76890 | -90.73912 | 32146 ft | 433 kts | 319° |
| 2026-05-07 17:27 | 36.82147 | -90.77646 | 32113 ft | 436 kts | 319° |
| 2026-05-07 17:28 | 36.87428 | -90.81399 | 32127 ft | 438 kts | 319° |
| 2026-05-07 17:28 | 36.92735 | -90.85177 | 32126 ft | 439 kts | 319° |
| 2026-05-07 17:29 | 36.98058 | -90.88970 | 32124 ft | 441 kts | 319° |
| 2026-05-07 17:29 | 37.03363 | -90.92759 | 32132 ft | 443 kts | 319° |
| 2026-05-07 17:30 | 37.08716 | -90.96587 | 32136 ft | 444 kts | 319° |
| 2026-05-07 17:30 | 37.14015 | -91.00382 | 32128 ft | 444 kts | 319° |
| 2026-05-07 17:31 | 37.19371 | -91.04222 | 32135 ft | 443 kts | 319° |
| 2026-05-07 17:31 | 37.24727 | -91.08073 | 32162 ft | 443 kts | 320° |
| 2026-05-07 17:32 | 37.30082 | -91.11930 | 32142 ft | 444 kts | 320° |
| 2026-05-07 17:32 | 37.35445 | -91.15798 | 32122 ft | 444 kts | 320° |
| 2026-05-07 17:33 | 37.40800 | -91.19665 | 32131 ft | 444 kts | 320° |
| 2026-05-07 17:33 | 37.46118 | -91.23514 | 32125 ft | 443 kts | 320° |
| 2026-05-07 17:34 | 37.51472 | -91.27397 | 32134 ft | 444 kts | 320° |
| 2026-05-07 17:34 | 37.56823 | -91.31279 | 32129 ft | 443 kts | 320° |
| 2026-05-07 17:35 | 37.62149 | -91.35151 | 32124 ft | 442 kts | 320° |
| 2026-05-07 17:35 | 37.67502 | -91.39051 | 32119 ft | 442 kts | 320° |
| 2026-05-07 17:36 | 37.72792 | -91.42911 | 32132 ft | 442 kts | 320° |
| 2026-05-07 17:36 | 37.78134 | -91.46817 | 32119 ft | 441 kts | 320° |
| 2026-05-07 17:37 | 37.83433 | -91.50695 | 32112 ft | 441 kts | 320° |
| 2026-05-07 17:37 | 37.88727 | -91.54578 | 32111 ft | 441 kts | 320° |
| 2026-05-07 17:38 | 37.94034 | -91.58478 | 32119 ft | 441 kts | 320° |
| 2026-05-07 17:38 | 37.99321 | -91.62369 | 32120 ft | 442 kts | 320° |
| 2026-05-07 17:39 | 38.04653 | -91.66299 | 32109 ft | 442 kts | 320° |
| 2026-05-07 17:39 | 38.09953 | -91.70211 | 32109 ft | 442 kts | 320° |
| 2026-05-07 17:40 | 38.15251 | -91.74129 | 32109 ft | 441 kts | 320° |
| 2026-05-07 17:40 | 38.20574 | -91.78073 | 32128 ft | 442 kts | 320° |
| 2026-05-07 17:41 | 38.25866 | -91.82000 | 32102 ft | 441 kts | 320° |
| 2026-05-07 17:41 | 38.31173 | -91.85946 | 32101 ft | 440 kts | 320° |
| 2026-05-07 17:42 | 38.36434 | -91.89863 | 32077 ft | 439 kts | 320° |
| 2026-05-07 17:42 | 38.41697 | -91.93790 | 32076 ft | 438 kts | 320° |
| 2026-05-07 17:43 | 38.46982 | -91.97739 | 32084 ft | 439 kts | 320° |
| 2026-05-07 17:43 | 38.52057 | -92.01818 | 32087 ft | 432 kts | 315° |
| 2026-05-07 17:44 | 38.56914 | -92.06297 | 32093 ft | 432 kts | 315° |
| 2026-05-07 17:44 | 38.61785 | -92.10815 | 32086 ft | 433 kts | 315° |
| 2026-05-07 17:45 | 38.66675 | -92.15341 | 32108 ft | 434 kts | 315° |
| 2026-05-07 17:45 | 38.71576 | -92.19871 | 32088 ft | 434 kts | 315° |
| 2026-05-07 17:46 | 38.76479 | -92.24407 | 32081 ft | 434 kts | 315° |
| 2026-05-07 17:46 | 38.81330 | -92.28902 | 32082 ft | 432 kts | 315° |
| 2026-05-07 17:47 | 38.86203 | -92.33425 | 32080 ft | 431 kts | 315° |
| 2026-05-07 17:47 | 38.91065 | -92.37949 | 32091 ft | 431 kts | 315° |
| 2026-05-07 17:48 | 38.95919 | -92.42473 | 32063 ft | 431 kts | 315° |
| 2026-05-07 17:48 | 39.00758 | -92.46990 | 32069 ft | 430 kts | 315° |
| 2026-05-07 17:49 | 39.05561 | -92.51481 | 32083 ft | 430 kts | 315° |
| 2026-05-07 17:49 | 39.10394 | -92.56008 | 32101 ft | 430 kts | 315° |
| 2026-05-07 17:50 | 39.15236 | -92.60553 | 32076 ft | 430 kts | 315° |
| 2026-05-07 17:50 | 39.20066 | -92.65092 | 32073 ft | 430 kts | 315° |
| 2026-05-07 17:51 | 39.24903 | -92.69647 | 32055 ft | 430 kts | 316° |
| 2026-05-07 17:51 | 39.29743 | -92.74212 | 32065 ft | 430 kts | 315° |
| 2026-05-07 17:52 | 39.34584 | -92.78787 | 32072 ft | 431 kts | 316° |
| 2026-05-07 17:52 | 39.39395 | -92.83339 | 32059 ft | 431 kts | 316° |
| 2026-05-07 17:53 | 39.44232 | -92.87925 | 32053 ft | 431 kts | 316° |
| 2026-05-07 17:53 | 39.49069 | -92.92519 | 32053 ft | 431 kts | 316° |
| 2026-05-07 17:54 | 39.53899 | -92.97115 | 32047 ft | 430 kts | 316° |
| 2026-05-07 17:54 | 39.58664 | -93.01659 | 32050 ft | 431 kts | 316° |
| 2026-05-07 17:55 | 39.63490 | -93.06266 | 32027 ft | 430 kts | 316° |
| 2026-05-07 17:55 | 39.68276 | -93.10842 | 32051 ft | 429 kts | 316° |
| 2026-05-07 17:56 | 39.73084 | -93.15449 | 32038 ft | 429 kts | 316° |
| 2026-05-07 17:56 | 39.77882 | -93.20056 | 32055 ft | 429 kts | 316° |
| 2026-05-07 17:57 | 39.81873 | -93.23894 | 32038 ft | 429 kts | 316° |
| 2026-05-07 17:57 | 39.87444 | -93.29258 | 32024 ft | 426 kts | 316° |
| 2026-05-07 17:58 | 39.92229 | -93.33854 | 32016 ft | 423 kts | 316° |
| 2026-05-07 17:58 | 39.96927 | -93.38363 | 32023 ft | 422 kts | 316° |
| 2026-05-07 17:59 | 40.01397 | -93.42663 | 32027 ft | 422 kts | 317° |
| 2026-05-07 17:59 | 40.06150 | -93.47272 | 32026 ft | 429 kts | 317° |
| 2026-05-07 18:00 | 40.10968 | -93.51960 | 32013 ft | 434 kts | 317° |
| 2026-05-07 18:00 | 40.15829 | -93.56697 | 32002 ft | 437 kts | 317° |
| 2026-05-07 18:01 | 40.20701 | -93.61449 | 32031 ft | 436 kts | 317° |
| 2026-05-07 18:01 | 40.25536 | -93.66177 | 31999 ft | 436 kts | 317° |
| 2026-05-07 18:02 | 40.32803 | -93.73300 | 31984 ft | 434 kts | 317° |
| 2026-05-07 18:03 | 40.37634 | -93.78049 | 31977 ft | 433 kts | 317° |
| 2026-05-07 18:03 | 40.42447 | -93.82787 | 31990 ft | 432 kts | 317° |
| 2026-05-07 18:04 | 40.47255 | -93.87532 | 31969 ft | 433 kts | 317° |
| 2026-05-07 18:04 | 40.52084 | -93.92303 | 31967 ft | 434 kts | 317° |
| 2026-05-07 18:05 | 40.56913 | -93.97086 | 31960 ft | 435 kts | 317° |
| 2026-05-07 18:05 | 40.61480 | -94.01614 | 31966 ft | 435 kts | 317° |
| 2026-05-07 18:06 | 40.66320 | -94.06423 | 31965 ft | 436 kts | 317° |
| 2026-05-07 18:06 | 40.71162 | -94.11244 | 31961 ft | 436 kts | 317° |
| 2026-05-07 18:07 | 40.75195 | -94.15265 | 31958 ft | 436 kts | 317° |
| 2026-05-07 18:07 | 40.80829 | -94.20894 | 31936 ft | 435 kts | 317° |
| 2026-05-07 18:08 | 40.84838 | -94.24907 | 31969 ft | 436 kts | 318° |
| 2026-05-07 18:08 | 40.89666 | -94.29749 | 31955 ft | 436 kts | 318° |
| 2026-05-07 18:09 | 40.94530 | -94.34644 | 31947 ft | 436 kts | 317° |
| 2026-05-07 18:09 | 40.99294 | -94.39547 | 31942 ft | 436 kts | 317° |
| 2026-05-07 18:10 | 41.04063 | -94.44493 | 31943 ft | 436 kts | 317° |
| 2026-05-07 18:10 | 41.08867 | -94.49478 | 31954 ft | 436 kts | 317° |
| 2026-05-07 18:11 | 41.13647 | -94.54438 | 31933 ft | 436 kts | 317° |
| 2026-05-07 18:11 | 41.18388 | -94.59364 | 31934 ft | 435 kts | 317° |
| 2026-05-07 18:12 | 41.23153 | -94.64324 | 31939 ft | 435 kts | 317° |
| 2026-05-07 18:12 | 41.27916 | -94.69294 | 31931 ft | 436 kts | 317° |
| 2026-05-07 18:13 | 41.32682 | -94.74273 | 31920 ft | 435 kts | 317° |
| 2026-05-07 18:13 | 41.37438 | -94.79254 | 31916 ft | 434 kts | 317° |
| 2026-05-07 18:14 | 41.42184 | -94.84233 | 31914 ft | 434 kts | 317° |
| 2026-05-07 18:14 | 41.46921 | -94.89212 | 31948 ft | 433 kts | 318° |
| 2026-05-07 18:15 | 41.51649 | -94.94192 | 31938 ft | 432 kts | 318° |
| 2026-05-07 18:15 | 41.56357 | -94.99157 | 31925 ft | 430 kts | 318° |
| 2026-05-07 18:16 | 41.60997 | -95.04063 | 31928 ft | 431 kts | 318° |
| 2026-05-07 18:16 | 41.65668 | -95.09012 | 31930 ft | 431 kts | 318° |
| 2026-05-07 18:17 | 41.70389 | -95.14022 | 31936 ft | 432 kts | 318° |
| 2026-05-07 18:17 | 41.75074 | -95.19003 | 31926 ft | 431 kts | 318° |
| 2026-05-07 18:18 | 41.79773 | -95.24007 | 31938 ft | 430 kts | 318° |
| 2026-05-07 18:18 | 41.84441 | -95.28990 | 31943 ft | 429 kts | 318° |
| 2026-05-07 18:19 | 41.89093 | -95.33965 | 31907 ft | 429 kts | 318° |
| 2026-05-07 18:19 | 41.93725 | -95.38928 | 31926 ft | 428 kts | 318° |
| 2026-05-07 18:20 | 41.98378 | -95.43922 | 31935 ft | 428 kts | 318° |
| 2026-05-07 18:20 | 42.03030 | -95.48927 | 31935 ft | 428 kts | 318° |
| 2026-05-07 18:21 | 42.07682 | -95.53940 | 31973 ft | 429 kts | 318° |
| 2026-05-07 18:21 | 42.12319 | -95.58946 | 31944 ft | 428 kts | 318° |
| 2026-05-07 18:22 | 42.16974 | -95.63981 | 31929 ft | 427 kts | 318° |
| 2026-05-07 18:22 | 42.21593 | -95.68988 | 31931 ft | 426 kts | 318° |
| 2026-05-07 18:23 | 42.26192 | -95.73985 | 31925 ft | 426 kts | 318° |
| 2026-05-07 18:23 | 42.30836 | -95.79038 | 31939 ft | 427 kts | 319° |
| 2026-05-07 18:24 | 42.35459 | -95.84078 | 31932 ft | 428 kts | 319° |
| 2026-05-07 18:24 | 42.40083 | -95.89129 | 31923 ft | 428 kts | 319° |
| 2026-05-07 18:25 | 42.44703 | -95.94187 | 31924 ft | 428 kts | 319° |
| 2026-05-07 18:25 | 42.49319 | -95.99247 | 31915 ft | 428 kts | 319° |
| 2026-05-07 18:26 | 42.54052 | -96.03971 | 31919 ft | 427 kts | 322° |
| 2026-05-07 18:26 | 42.58898 | -96.08594 | 31930 ft | 426 kts | 322° |
| 2026-05-07 18:27 | 42.63774 | -96.13258 | 31913 ft | 427 kts | 322° |
| 2026-05-07 18:27 | 42.68601 | -96.17905 | 31919 ft | 428 kts | 322° |
| 2026-05-07 18:28 | 42.73459 | -96.22603 | 31920 ft | 429 kts | 322° |
| 2026-05-07 18:28 | 42.78350 | -96.27345 | 31917 ft | 431 kts | 322° |
| 2026-05-07 18:29 | 42.83210 | -96.32066 | 31916 ft | 431 kts | 322° |
| 2026-05-07 18:29 | 42.88105 | -96.36830 | 31914 ft | 431 kts | 322° |
| 2026-05-07 18:30 | 42.92963 | -96.41567 | 31913 ft | 429 kts | 322° |
| 2026-05-07 18:30 | 42.97798 | -96.46292 | 31921 ft | 428 kts | 322° |
| 2026-05-07 18:31 | 43.02615 | -96.51008 | 31920 ft | 428 kts | 322° |
| 2026-05-07 18:31 | 43.07476 | -96.55776 | 31941 ft | 428 kts | 322° |
| 2026-05-07 18:32 | 43.12291 | -96.60509 | 31942 ft | 429 kts | 322° |
| 2026-05-07 18:32 | 43.17159 | -96.65303 | 31943 ft | 429 kts | 322° |
| 2026-05-07 18:33 | 43.21996 | -96.70077 | 31948 ft | 429 kts | 322° |
| 2026-05-07 18:33 | 43.26813 | -96.74840 | 31946 ft | 429 kts | 322° |
| 2026-05-07 18:34 | 43.31668 | -96.79650 | 31942 ft | 428 kts | 322° |
| 2026-05-07 18:34 | 43.36464 | -96.84411 | 31916 ft | 427 kts | 322° |
| 2026-05-07 18:35 | 43.41264 | -96.89187 | 31944 ft | 428 kts | 322° |
| 2026-05-07 18:35 | 43.46119 | -96.94026 | 31945 ft | 429 kts | 322° |
| 2026-05-07 18:36 | 43.50944 | -96.98845 | 31957 ft | 430 kts | 322° |
| 2026-05-07 18:36 | 43.55715 | -97.03620 | 31951 ft | 431 kts | 322° |
| 2026-05-07 18:37 | 43.60554 | -97.08473 | 31950 ft | 431 kts | 322° |
| 2026-05-07 18:37 | 43.65399 | -97.13340 | 31954 ft | 431 kts | 322° |
| 2026-05-07 18:38 | 43.70236 | -97.18211 | 31949 ft | 429 kts | 322° |
| 2026-05-07 18:38 | 43.75041 | -97.23059 | 31943 ft | 428 kts | 322° |
| 2026-05-07 18:39 | 43.79864 | -97.27935 | 31973 ft | 427 kts | 322° |
| 2026-05-07 18:39 | 43.84642 | -97.32775 | 31954 ft | 426 kts | 322° |
| 2026-05-07 18:40 | 43.89406 | -97.37611 | 31943 ft | 425 kts | 322° |
| 2026-05-07 18:40 | 43.94161 | -97.42448 | 31950 ft | 424 kts | 322° |
| 2026-05-07 18:41 | 43.98926 | -97.47305 | 31972 ft | 424 kts | 322° |
| 2026-05-07 18:41 | 44.03664 | -97.52144 | 31973 ft | 425 kts | 322° |
| 2026-05-07 18:42 | 44.08445 | -97.57037 | 31966 ft | 425 kts | 322° |
| 2026-05-07 18:42 | 44.13182 | -97.61896 | 31957 ft | 425 kts | 322° |
| 2026-05-07 18:43 | 44.17949 | -97.66795 | 31979 ft | 427 kts | 322° |
| 2026-05-07 18:43 | 44.22742 | -97.71730 | 31964 ft | 428 kts | 322° |
| 2026-05-07 18:44 | 44.27516 | -97.76656 | 31960 ft | 429 kts | 322° |
| 2026-05-07 18:44 | 44.32332 | -97.81637 | 31956 ft | 429 kts | 322° |
| 2026-05-07 18:45 | 44.37116 | -97.86595 | 31955 ft | 429 kts | 322° |
| 2026-05-07 18:45 | 44.41899 | -97.91562 | 31938 ft | 428 kts | 322° |
| 2026-05-07 18:46 | 44.46672 | -97.96528 | 31937 ft | 427 kts | 322° |
| 2026-05-07 18:46 | 44.51176 | -98.01703 | 31932 ft | 426 kts | 315° |
| 2026-05-07 18:47 | 44.55238 | -98.07749 | 31937 ft | 426 kts | 313° |
| 2026-05-07 18:47 | 44.59291 | -98.13848 | 31944 ft | 428 kts | 313° |
| 2026-05-07 18:48 | 44.63358 | -98.19959 | 31940 ft | 429 kts | 313° |
| 2026-05-07 18:48 | 44.67433 | -98.26083 | 31940 ft | 429 kts | 313° |
| 2026-05-07 18:49 | 44.71512 | -98.32222 | 31958 ft | 430 kts | 313° |
| 2026-05-07 18:49 | 44.75587 | -98.38368 | 31937 ft | 430 kts | 313° |
| 2026-05-07 18:50 | 44.79665 | -98.44532 | 31938 ft | 430 kts | 313° |
| 2026-05-07 18:50 | 44.83738 | -98.50704 | 31950 ft | 430 kts | 313° |
| 2026-05-07 18:51 | 44.87784 | -98.56848 | 31959 ft | 430 kts | 313° |
| 2026-05-07 18:51 | 44.91852 | -98.63040 | 31946 ft | 430 kts | 313° |
| 2026-05-07 18:52 | 44.95920 | -98.69244 | 31944 ft | 430 kts | 313° |
| 2026-05-07 18:52 | 44.99977 | -98.75446 | 31942 ft | 430 kts | 313° |
| 2026-05-07 18:53 | 45.04042 | -98.81675 | 31940 ft | 430 kts | 313° |
| 2026-05-07 18:53 | 45.08082 | -98.87879 | 31937 ft | 430 kts | 313° |
| 2026-05-07 18:54 | 45.12121 | -98.94095 | 31942 ft | 430 kts | 313° |
| 2026-05-07 18:54 | 45.16127 | -99.00274 | 31939 ft | 431 kts | 313° |
| 2026-05-07 18:55 | 45.20194 | -99.06562 | 31936 ft | 432 kts | 313° |
| 2026-05-07 18:55 | 45.24231 | -99.12819 | 31948 ft | 432 kts | 313° |
| 2026-05-07 18:56 | 45.27621 | -99.18082 | 31934 ft | 432 kts | 313° |
| 2026-05-07 18:56 | 45.31677 | -99.24394 | 31935 ft | 432 kts | 313° |
| 2026-05-07 18:57 | 45.35699 | -99.30666 | 31929 ft | 431 kts | 313° |
| 2026-05-07 18:57 | 45.39734 | -99.36977 | 31942 ft | 431 kts | 313° |
| 2026-05-07 18:58 | 45.43771 | -99.43299 | 31934 ft | 432 kts | 313° |
| 2026-05-07 18:58 | 45.47815 | -99.49649 | 31933 ft | 432 kts | 312° |
| 2026-05-07 18:59 | 45.51859 | -99.56014 | 31928 ft | 433 kts | 312° |
| 2026-05-07 18:59 | 45.55878 | -99.62354 | 31923 ft | 433 kts | 312° |
| 2026-05-07 19:00 | 45.59916 | -99.68740 | 31926 ft | 433 kts | 312° |
| 2026-05-07 19:00 | 45.63955 | -99.75143 | 31928 ft | 433 kts | 312° |
| 2026-05-07 19:01 | 45.67985 | -99.81544 | 31930 ft | 433 kts | 312° |
| 2026-05-07 19:01 | 45.72008 | -99.87952 | 31913 ft | 433 kts | 312° |
| 2026-05-07 19:02 | 45.76033 | -99.94375 | 31928 ft | 434 kts | 312° |
| 2026-05-07 19:02 | 45.80019 | -100.00751 | 31919 ft | 435 kts | 312° |
| 2026-05-07 19:03 | 45.84036 | -100.07193 | 31922 ft | 436 kts | 312° |
| 2026-05-07 19:03 | 45.88078 | -100.13689 | 31928 ft | 436 kts | 312° |
| 2026-05-07 19:04 | 45.92117 | -100.20197 | 31943 ft | 436 kts | 312° |
| 2026-05-07 19:04 | 45.96154 | -100.26717 | 31931 ft | 436 kts | 312° |
| 2026-05-07 19:05 | 46.00176 | -100.33227 | 31924 ft | 436 kts | 312° |
| 2026-05-07 19:05 | 46.04204 | -100.39767 | 31927 ft | 436 kts | 311° |
| 2026-05-07 19:06 | 46.08210 | -100.46280 | 31925 ft | 437 kts | 311° |
| 2026-05-07 19:06 | 46.14267 | -100.56161 | 31936 ft | 440 kts | 311° |
| 2026-05-07 19:07 | 46.18314 | -100.62783 | 31932 ft | 440 kts | 311° |
| 2026-05-07 19:07 | 46.22360 | -100.69419 | 31934 ft | 440 kts | 311° |
| 2026-05-07 19:08 | 46.26395 | -100.76055 | 31937 ft | 440 kts | 311° |
| 2026-05-07 19:08 | 46.30430 | -100.82704 | 31937 ft | 439 kts | 311° |
| 2026-05-07 19:09 | 46.34437 | -100.89329 | 31918 ft | 439 kts | 311° |
| 2026-05-07 19:09 | 46.38464 | -100.95997 | 31933 ft | 440 kts | 311° |
| 2026-05-07 19:10 | 46.42454 | -101.02618 | 31945 ft | 442 kts | 311° |
| 2026-05-07 19:10 | 46.46501 | -101.09354 | 31948 ft | 443 kts | 311° |
| 2026-05-07 19:11 | 46.50547 | -101.16105 | 31938 ft | 444 kts | 311° |
| 2026-05-07 19:11 | 46.54595 | -101.22876 | 31946 ft | 444 kts | 311° |
| 2026-05-07 19:12 | 46.58636 | -101.29652 | 31929 ft | 443 kts | 310° |
| 2026-05-07 19:12 | 46.62647 | -101.36394 | 31953 ft | 443 kts | 310° |
| 2026-05-07 19:13 | 46.66670 | -101.43177 | 31920 ft | 443 kts | 310° |
| 2026-05-07 19:13 | 46.70694 | -101.49971 | 31926 ft | 443 kts | 310° |
| 2026-05-07 19:14 | 46.74722 | -101.56791 | 31932 ft | 444 kts | 310° |
| 2026-05-07 19:14 | 46.78756 | -101.63641 | 31931 ft | 445 kts | 310° |
| 2026-05-07 19:15 | 46.82789 | -101.70505 | 31927 ft | 446 kts | 310° |
| 2026-05-07 19:15 | 46.86821 | -101.77385 | 31922 ft | 446 kts | 310° |
| 2026-05-07 19:16 | 46.90848 | -101.84275 | 31928 ft | 445 kts | 310° |
| 2026-05-07 19:16 | 46.94870 | -101.91173 | 31923 ft | 445 kts | 310° |
| 2026-05-07 19:17 | 46.98886 | -101.98075 | 31930 ft | 445 kts | 310° |
| 2026-05-07 19:17 | 47.03155 | -102.04377 | 31924 ft | 444 kts | 316° |
| 2026-05-07 19:18 | 47.07717 | -102.10494 | 31923 ft | 444 kts | 317° |
| 2026-05-07 19:18 | 47.12266 | -102.16623 | 31910 ft | 444 kts | 316° |
| 2026-05-07 19:19 | 47.16797 | -102.22772 | 31921 ft | 443 kts | 316° |
| 2026-05-07 19:19 | 47.21321 | -102.28943 | 31916 ft | 444 kts | 316° |
| 2026-05-07 19:20 | 47.25841 | -102.35126 | 31915 ft | 444 kts | 316° |
| 2026-05-07 19:20 | 47.30364 | -102.41326 | 31916 ft | 444 kts | 316° |
| 2026-05-07 19:21 | 47.34882 | -102.47534 | 31928 ft | 444 kts | 316° |
| 2026-05-07 19:21 | 47.39400 | -102.53758 | 31912 ft | 444 kts | 316° |
| 2026-05-07 19:22 | 47.43890 | -102.59957 | 31905 ft | 445 kts | 316° |
| 2026-05-07 19:22 | 47.48409 | -102.66212 | 31911 ft | 445 kts | 316° |
| 2026-05-07 19:23 | 47.52958 | -102.72526 | 31929 ft | 446 kts | 316° |
| 2026-05-07 19:23 | 47.57461 | -102.78791 | 31922 ft | 447 kts | 316° |
| 2026-05-07 19:24 | 47.61995 | -102.85113 | 31924 ft | 447 kts | 316° |
| 2026-05-07 19:24 | 47.66524 | -102.91445 | 31927 ft | 447 kts | 316° |
| 2026-05-07 19:25 | 47.71049 | -102.97789 | 31931 ft | 446 kts | 316° |
| 2026-05-07 19:25 | 47.75498 | -103.04040 | 31927 ft | 446 kts | 316° |
| 2026-05-07 19:26 | 47.79971 | -103.10340 | 31937 ft | 445 kts | 316° |
| 2026-05-07 19:26 | 47.84464 | -103.16685 | 31939 ft | 445 kts | 316° |
| 2026-05-07 19:27 | 47.88955 | -103.23044 | 31941 ft | 445 kts | 315° |
| 2026-05-07 19:27 | 47.93443 | -103.29414 | 31943 ft | 445 kts | 315° |
| 2026-05-07 19:28 | 47.97934 | -103.35802 | 31943 ft | 446 kts | 315° |
| 2026-05-07 19:28 | 48.02413 | -103.42191 | 31939 ft | 446 kts | 315° |
| 2026-05-07 19:29 | 48.06901 | -103.48610 | 31935 ft | 446 kts | 315° |
| 2026-05-07 19:29 | 48.11355 | -103.54997 | 31924 ft | 447 kts | 315° |
| 2026-05-07 19:30 | 48.15837 | -103.61441 | 31913 ft | 446 kts | 315° |
| 2026-05-07 19:30 | 48.20312 | -103.67889 | 31908 ft | 446 kts | 315° |
| 2026-05-07 19:31 | 48.24779 | -103.74360 | 31907 ft | 446 kts | 314° |
| 2026-05-07 19:31 | 48.28859 | -103.81357 | 31911 ft | 445 kts | 309° |
| 2026-05-07 19:32 | 48.32815 | -103.88535 | 31894 ft | 446 kts | 309° |
| 2026-05-07 19:32 | 48.36777 | -103.95724 | 31918 ft | 446 kts | 309° |
| 2026-05-07 19:33 | 48.40690 | -104.02812 | 31933 ft | 447 kts | 309° |
| 2026-05-07 19:33 | 48.44667 | -104.10022 | 31968 ft | 447 kts | 309° |
| 2026-05-07 19:34 | 48.48641 | -104.17245 | 31956 ft | 448 kts | 309° |
| 2026-05-07 19:34 | 48.52614 | -104.24484 | 31943 ft | 448 kts | 309° |
| 2026-05-07 19:35 | 48.56557 | -104.31691 | 31934 ft | 447 kts | 309° |
| 2026-05-07 19:35 | 48.60516 | -104.38945 | 31924 ft | 447 kts | 309° |
| 2026-05-07 19:36 | 48.64464 | -104.46200 | 31924 ft | 447 kts | 309° |
| 2026-05-07 19:36 | 48.68402 | -104.53456 | 31902 ft | 446 kts | 309° |
| 2026-05-07 19:37 | 48.72339 | -104.60730 | 31904 ft | 446 kts | 309° |
| 2026-05-07 19:37 | 48.76274 | -104.68019 | 31912 ft | 447 kts | 309° |
| 2026-05-07 19:38 | 48.80186 | -104.75286 | 31933 ft | 447 kts | 309° |
| 2026-05-07 19:38 | 48.84121 | -104.82616 | 31927 ft | 448 kts | 308° |
| 2026-05-07 19:39 | 48.88050 | -104.89956 | 31936 ft | 448 kts | 308° |
| 2026-05-07 19:39 | 48.91312 | -104.96064 | 31939 ft | 448 kts | 308° |
| 2026-05-07 19:40 | 48.95848 | -105.04579 | 31949 ft | 447 kts | 308° |
| 2026-05-07 19:40 | 48.99740 | -105.11911 | 31932 ft | 447 kts | 308° |
| 2026-05-07 19:41 | 49.03646 | -105.19286 | 31935 ft | 447 kts | 308° |
| 2026-05-07 19:41 | 49.07542 | -105.26666 | 31941 ft | 447 kts | 308° |
| 2026-05-07 19:42 | 49.10780 | -105.32813 | 31947 ft | 447 kts | 308° |
| 2026-05-07 19:42 | 49.14673 | -105.40223 | 31951 ft | 447 kts | 308° |
| 2026-05-07 19:43 | 49.19188 | -105.48843 | 31955 ft | 447 kts | 308° |
| 2026-05-07 19:43 | 49.22446 | -105.55082 | 31945 ft | 448 kts | 308° |
| 2026-05-07 19:44 | 49.26329 | -105.62535 | 31944 ft | 447 kts | 308° |
| 2026-05-07 19:44 | 49.30186 | -105.69959 | 31941 ft | 447 kts | 308° |
| 2026-05-07 19:45 | 49.34053 | -105.77424 | 31932 ft | 447 kts | 308° |
| 2026-05-07 19:45 | 49.37913 | -105.84895 | 31941 ft | 446 kts | 308° |
| 2026-05-07 19:46 | 49.41764 | -105.92370 | 31946 ft | 446 kts | 308° |
| 2026-05-07 19:46 | 49.45612 | -105.99862 | 31944 ft | 446 kts | 308° |
| 2026-05-07 19:47 | 49.49404 | -106.07265 | 31939 ft | 446 kts | 308° |
| 2026-05-07 19:47 | 49.53221 | -106.14736 | 31952 ft | 446 kts | 308° |
| 2026-05-07 19:48 | 49.57055 | -106.22264 | 31934 ft | 446 kts | 308° |
| 2026-05-07 19:48 | 49.60879 | -106.29792 | 31934 ft | 446 kts | 308° |
| 2026-05-07 19:49 | 49.64704 | -106.37346 | 31931 ft | 446 kts | 307° |
| 2026-05-07 19:49 | 49.68518 | -106.44894 | 31916 ft | 445 kts | 308° |
| 2026-05-07 19:50 | 49.72316 | -106.52436 | 31921 ft | 444 kts | 308° |
| 2026-05-07 19:50 | 49.76073 | -106.59921 | 31924 ft | 443 kts | 308° |
| 2026-05-07 19:51 | 49.79840 | -106.67443 | 31918 ft | 442 kts | 308° |
| 2026-05-07 19:51 | 49.83600 | -106.74972 | 31918 ft | 441 kts | 308° |
| 2026-05-07 19:52 | 49.87345 | -106.82495 | 31917 ft | 441 kts | 308° |
| 2026-05-07 19:52 | 49.91090 | -106.90038 | 31917 ft | 441 kts | 307° |
| 2026-05-07 19:53 | 49.94833 | -106.97600 | 31907 ft | 442 kts | 307° |
| 2026-05-07 19:53 | 49.98529 | -107.05086 | 31905 ft | 442 kts | 307° |
| 2026-05-07 19:54 | 50.02262 | -107.12672 | 31892 ft | 441 kts | 308° |
| 2026-05-07 19:54 | 50.05981 | -107.20248 | 31907 ft | 440 kts | 308° |
| 2026-05-07 19:55 | 50.09681 | -107.27811 | 31889 ft | 438 kts | 308° |
| 2026-05-07 19:55 | 50.13347 | -107.35320 | 31878 ft | 437 kts | 308° |
| 2026-05-07 19:56 | 50.17019 | -107.42867 | 31873 ft | 437 kts | 308° |
| 2026-05-07 19:56 | 50.20689 | -107.50431 | 31866 ft | 437 kts | 307° |
| 2026-05-07 19:57 | 50.24350 | -107.57999 | 31876 ft | 437 kts | 307° |
| 2026-05-07 19:57 | 50.28009 | -107.65581 | 31860 ft | 437 kts | 307° |
| 2026-05-07 19:58 | 50.31796 | -107.73020 | 31862 ft | 437 kts | 310° |
| 2026-05-07 19:58 | 50.35769 | -107.80213 | 31867 ft | 437 kts | 311° |
| 2026-05-07 19:59 | 50.39738 | -107.87374 | 31863 ft | 431 kts | 311° |
| 2026-05-07 19:59 | 50.43622 | -107.94443 | 31875 ft | 430 kts | 311° |
| 2026-05-07 20:00 | 50.47469 | -108.01485 | 31871 ft | 430 kts | 311° |
| 2026-05-07 20:00 | 50.51360 | -108.08635 | 31871 ft | 431 kts | 311° |
| 2026-05-07 20:01 | 50.55251 | -108.15803 | 31864 ft | 431 kts | 311° |
| 2026-05-07 20:01 | 50.59142 | -108.22993 | 31858 ft | 431 kts | 310° |
| 2026-05-07 20:02 | 50.63033 | -108.30202 | 31868 ft | 432 kts | 310° |
| 2026-05-07 20:02 | 50.66923 | -108.37427 | 31851 ft | 432 kts | 310° |
| 2026-05-07 20:03 | 50.70780 | -108.44613 | 31863 ft | 432 kts | 310° |
| 2026-05-07 20:03 | 50.74661 | -108.51864 | 31855 ft | 432 kts | 310° |
| 2026-05-07 20:04 | 50.78538 | -108.59129 | 31852 ft | 432 kts | 310° |
| 2026-05-07 20:04 | 50.82414 | -108.66410 | 31861 ft | 433 kts | 310° |
| 2026-05-07 20:05 | 50.86287 | -108.73708 | 31843 ft | 433 kts | 310° |
| 2026-05-07 20:05 | 50.90152 | -108.81010 | 31846 ft | 432 kts | 310° |
| 2026-05-07 20:06 | 50.94013 | -108.88325 | 31838 ft | 433 kts | 310° |
| 2026-05-07 20:06 | 50.97867 | -108.95649 | 31860 ft | 432 kts | 310° |
| 2026-05-07 20:07 | 51.01647 | -109.02854 | 31839 ft | 432 kts | 310° |
| 2026-05-07 20:07 | 51.05492 | -109.10203 | 31835 ft | 432 kts | 310° |
| 2026-05-07 20:08 | 51.09331 | -109.17558 | 31829 ft | 431 kts | 310° |
| 2026-05-07 20:08 | 51.13153 | -109.24904 | 31828 ft | 431 kts | 310° |
| 2026-05-07 20:09 | 51.16973 | -109.32267 | 31842 ft | 431 kts | 310° |
| 2026-05-07 20:10 | 51.22698 | -109.43342 | 31826 ft | 431 kts | 309° |
| 2026-05-07 20:10 | 51.26489 | -109.50702 | 31830 ft | 432 kts | 309° |
| 2026-05-07 20:11 | 51.30302 | -109.58127 | 31824 ft | 432 kts | 309° |
| 2026-05-07 20:11 | 51.34105 | -109.65554 | 31827 ft | 431 kts | 309° |
| 2026-05-07 20:12 | 51.37900 | -109.72985 | 31833 ft | 431 kts | 309° |
| 2026-05-07 20:12 | 51.41685 | -109.80420 | 31829 ft | 430 kts | 309° |
| 2026-05-07 20:13 | 51.45462 | -109.87859 | 31829 ft | 430 kts | 309° |
| 2026-05-07 20:13 | 51.49233 | -109.95308 | 31830 ft | 430 kts | 309° |
| 2026-05-07 20:14 | 51.52941 | -110.02720 | 31843 ft | 430 kts | 308° |
| 2026-05-07 20:14 | 51.56524 | -110.10423 | 31837 ft | 431 kts | 307° |
| 2026-05-07 20:15 | 51.60050 | -110.18149 | 31797 ft | 431 kts | 307° |
| 2026-05-07 20:15 | 51.63607 | -110.25918 | 31831 ft | 431 kts | 307° |
| 2026-05-07 20:16 | 51.67173 | -110.33687 | 31845 ft | 432 kts | 307° |
| 2026-05-07 20:16 | 51.70743 | -110.41476 | 31851 ft | 432 kts | 307° |
| 2026-05-07 20:17 | 51.74317 | -110.49292 | 31845 ft | 433 kts | 307° |
| 2026-05-07 20:17 | 51.77860 | -110.57065 | 31854 ft | 433 kts | 307° |
| 2026-05-07 20:18 | 51.81446 | -110.64957 | 31859 ft | 433 kts | 307° |
| 2026-05-07 20:18 | 51.84978 | -110.72756 | 31860 ft | 432 kts | 307° |
| 2026-05-07 20:19 | 51.88527 | -110.80614 | 31876 ft | 432 kts | 306° |
| 2026-05-07 20:19 | 51.92071 | -110.88486 | 31863 ft | 432 kts | 306° |
| 2026-05-07 20:20 | 51.95604 | -110.96357 | 31856 ft | 431 kts | 306° |
| 2026-05-07 20:20 | 51.99083 | -111.04133 | 31860 ft | 431 kts | 306° |
| 2026-05-07 20:21 | 52.02598 | -111.12011 | 31884 ft | 431 kts | 306° |
| 2026-05-07 20:21 | 52.06118 | -111.19926 | 31880 ft | 432 kts | 306° |
| 2026-05-07 20:22 | 52.09612 | -111.27809 | 31876 ft | 432 kts | 306° |
| 2026-05-07 20:22 | 52.13123 | -111.35752 | 31895 ft | 432 kts | 306° |
| 2026-05-07 20:23 | 52.16629 | -111.43707 | 31894 ft | 432 kts | 306° |
| 2026-05-07 20:23 | 52.20129 | -111.51675 | 31892 ft | 432 kts | 306° |
| 2026-05-07 20:24 | 52.23616 | -111.59639 | 31889 ft | 431 kts | 306° |
| 2026-05-07 20:24 | 52.27098 | -111.67614 | 31894 ft | 431 kts | 306° |
| 2026-05-07 20:25 | 52.30571 | -111.75596 | 31889 ft | 431 kts | 306° |
| 2026-05-07 20:25 | 52.34025 | -111.83557 | 31891 ft | 431 kts | 306° |
| 2026-05-07 20:26 | 52.37496 | -111.91581 | 31889 ft | 432 kts | 306° |
| 2026-05-07 20:26 | 52.40923 | -111.99530 | 31886 ft | 433 kts | 306° |
| 2026-05-07 20:27 | 52.44369 | -112.07548 | 31892 ft | 434 kts | 306° |
| 2026-05-07 20:27 | 52.47830 | -112.15628 | 31885 ft | 434 kts | 306° |
| 2026-05-07 20:28 | 52.51288 | -112.23725 | 31887 ft | 433 kts | 306° |
| 2026-05-07 20:28 | 52.54740 | -112.31832 | 31879 ft | 433 kts | 306° |
| 2026-05-07 20:29 | 52.58187 | -112.39955 | 31874 ft | 433 kts | 306° |
| 2026-05-07 20:29 | 52.61617 | -112.48063 | 31871 ft | 433 kts | 306° |
| 2026-05-07 20:30 | 52.64491 | -112.54876 | 31873 ft | 432 kts | 306° |
| 2026-05-07 20:30 | 52.68456 | -112.64308 | 31858 ft | 432 kts | 306° |
| 2026-05-07 20:31 | 52.71312 | -112.71122 | 31882 ft | 432 kts | 306° |
| 2026-05-07 20:31 | 52.74724 | -112.79286 | 31894 ft | 433 kts | 306° |
| 2026-05-07 20:32 | 52.78130 | -112.87463 | 31898 ft | 433 kts | 306° |
| 2026-05-07 20:32 | 52.81558 | -112.95720 | 31896 ft | 434 kts | 306° |
| 2026-05-07 20:33 | 52.84925 | -113.03854 | 31901 ft | 434 kts | 306° |
| 2026-05-07 20:33 | 52.88320 | -113.12085 | 31903 ft | 434 kts | 306° |
| 2026-05-07 20:34 | 52.91706 | -113.20319 | 31905 ft | 433 kts | 305° |
| 2026-05-07 20:34 | 52.95096 | -113.28591 | 31905 ft | 433 kts | 305° |
| 2026-05-07 20:35 | 52.98475 | -113.36864 | 31911 ft | 433 kts | 305° |
| 2026-05-07 20:35 | 53.01836 | -113.45117 | 31910 ft | 433 kts | 305° |
| 2026-05-07 20:36 | 53.05196 | -113.53394 | 31905 ft | 434 kts | 305° |
| 2026-05-07 20:36 | 53.08587 | -113.61778 | 31906 ft | 437 kts | 305° |
| 2026-05-07 20:37 | 53.11969 | -113.70167 | 31899 ft | 438 kts | 305° |
| 2026-05-07 20:37 | 53.15350 | -113.78580 | 31903 ft | 438 kts | 305° |
| 2026-05-07 20:38 | 53.18751 | -113.87068 | 31893 ft | 438 kts | 305° |
| 2026-05-07 20:38 | 53.22227 | -113.95386 | 31896 ft | 436 kts | 306° |
| 2026-05-07 20:39 | 53.25693 | -114.03477 | 31894 ft | 435 kts | 306° |
| 2026-05-07 20:39 | 53.29211 | -114.11738 | 31899 ft | 434 kts | 306° |
| 2026-05-07 20:40 | 53.32683 | -114.19960 | 31905 ft | 434 kts | 306° |
| 2026-05-07 20:40 | 53.36170 | -114.28262 | 31897 ft | 434 kts | 306° |
| 2026-05-07 20:41 | 53.39625 | -114.36519 | 31901 ft | 434 kts | 306° |
| 2026-05-07 20:41 | 53.43081 | -114.44804 | 31897 ft | 436 kts | 306° |
| 2026-05-07 20:42 | 53.46566 | -114.53186 | 31902 ft | 440 kts | 306° |
| 2026-05-07 20:42 | 53.50067 | -114.61638 | 31902 ft | 441 kts | 306° |
| 2026-05-07 20:43 | 53.53556 | -114.70088 | 31901 ft | 441 kts | 306° |
| 2026-05-07 20:43 | 53.57060 | -114.78601 | 31902 ft | 440 kts | 306° |
| 2026-05-07 20:44 | 53.60524 | -114.87047 | 31902 ft | 439 kts | 305° |
| 2026-05-07 20:44 | 53.63974 | -114.95487 | 31908 ft | 438 kts | 305° |
| 2026-05-07 20:45 | 53.67329 | -115.03718 | 31908 ft | 438 kts | 305° |
| 2026-05-07 20:45 | 53.70812 | -115.12295 | 31909 ft | 437 kts | 305° |
| 2026-05-07 20:46 | 53.74249 | -115.20788 | 31910 ft | 438 kts | 305° |
| 2026-05-07 20:46 | 53.77676 | -115.29286 | 31912 ft | 438 kts | 305° |
| 2026-05-07 20:47 | 53.81104 | -115.37811 | 31899 ft | 438 kts | 305° |
| 2026-05-07 20:47 | 53.84531 | -115.46365 | 31919 ft | 439 kts | 304° |
| 2026-05-07 20:48 | 53.87960 | -115.54955 | 31923 ft | 440 kts | 304° |
| 2026-05-07 20:48 | 53.91388 | -115.63571 | 31921 ft | 441 kts | 304° |
| 2026-05-07 20:49 | 53.94790 | -115.72149 | 31928 ft | 441 kts | 304° |
| 2026-05-07 20:49 | 53.98210 | -115.80806 | 31932 ft | 441 kts | 304° |
| 2026-05-07 20:50 | 54.01624 | -115.89473 | 31932 ft | 441 kts | 304° |
| 2026-05-07 20:50 | 54.05029 | -115.98151 | 31935 ft | 441 kts | 304° |
| 2026-05-07 20:51 | 54.08382 | -116.06725 | 31936 ft | 440 kts | 304° |
| 2026-05-07 20:51 | 54.11769 | -116.15415 | 31937 ft | 440 kts | 304° |
| 2026-05-07 20:52 | 54.15128 | -116.24064 | 31937 ft | 440 kts | 304° |
| 2026-05-07 20:52 | 54.18499 | -116.32776 | 31917 ft | 439 kts | 304° |
| 2026-05-07 20:53 | 54.21854 | -116.41475 | 31938 ft | 438 kts | 304° |
| 2026-05-07 20:53 | 54.25203 | -116.50188 | 31956 ft | 438 kts | 303° |
| 2026-05-07 20:54 | 54.28538 | -116.58897 | 31958 ft | 437 kts | 303° |
| 2026-05-07 20:54 | 54.31866 | -116.67616 | 31959 ft | 437 kts | 303° |
| 2026-05-07 20:55 | 54.35191 | -116.76359 | 31948 ft | 438 kts | 303° |
| 2026-05-07 20:55 | 54.38513 | -116.85125 | 31952 ft | 439 kts | 303° |
| 2026-05-07 20:56 | 54.41837 | -116.93927 | 31951 ft | 439 kts | 303° |
| 2026-05-07 20:56 | 54.45108 | -117.02619 | 31953 ft | 439 kts | 303° |
| 2026-05-07 20:57 | 54.48418 | -117.11447 | 31952 ft | 439 kts | 303° |
| 2026-05-07 20:57 | 54.51699 | -117.20229 | 31958 ft | 439 kts | 303° |
| 2026-05-07 20:58 | 54.54995 | -117.29082 | 31961 ft | 439 kts | 303° |
| 2026-05-07 20:58 | 54.58289 | -117.37959 | 31958 ft | 439 kts | 303° |
| 2026-05-07 20:59 | 54.61575 | -117.46848 | 31957 ft | 439 kts | 303° |
| 2026-05-07 20:59 | 54.64855 | -117.55754 | 31967 ft | 439 kts | 303° |
| 2026-05-07 21:00 | 54.68128 | -117.64673 | 31968 ft | 439 kts | 303° |
| 2026-05-07 21:00 | 54.71387 | -117.73588 | 31977 ft | 438 kts | 302° |
| 2026-05-07 21:01 | 54.74639 | -117.82510 | 31965 ft | 438 kts | 302° |
| 2026-05-07 21:01 | 54.77861 | -117.91385 | 31973 ft | 438 kts | 302° |
| 2026-05-07 21:02 | 54.81068 | -118.00253 | 31971 ft | 438 kts | 302° |
| 2026-05-07 21:02 | 54.84299 | -118.09216 | 31974 ft | 439 kts | 302° |
| 2026-05-07 21:03 | 54.87529 | -118.18209 | 31976 ft | 438 kts | 302° |
| 2026-05-07 21:03 | 54.90752 | -118.27217 | 31976 ft | 439 kts | 302° |
| 2026-05-07 21:04 | 54.93946 | -118.36177 | 31950 ft | 437 kts | 302° |
| 2026-05-07 21:04 | 54.97130 | -118.45142 | 31960 ft | 433 kts | 302° |
| 2026-05-07 21:05 | 55.00280 | -118.54047 | 31960 ft | 431 kts | 302° |
| 2026-05-07 21:05 | 55.03414 | -118.62935 | 31974 ft | 429 kts | 302° |
| 2026-05-07 21:06 | 55.06534 | -118.71813 | 31965 ft | 430 kts | 302° |
| 2026-05-07 21:06 | 55.09655 | -118.80729 | 31941 ft | 431 kts | 302° |
| 2026-05-07 21:07 | 55.12772 | -118.89666 | 31944 ft | 431 kts | 301° |
| 2026-05-07 21:07 | 55.15868 | -118.98571 | 31945 ft | 432 kts | 301° |
| 2026-05-07 21:08 | 55.18938 | -119.07442 | 31972 ft | 432 kts | 301° |
| 2026-05-07 21:08 | 55.22046 | -119.16463 | 31965 ft | 432 kts | 301° |
| 2026-05-07 21:09 | 55.25141 | -119.25486 | 31969 ft | 432 kts | 301° |
| 2026-05-07 21:09 | 55.28231 | -119.34526 | 31969 ft | 432 kts | 301° |
| 2026-05-07 21:10 | 55.31310 | -119.43567 | 31949 ft | 429 kts | 301° |
| 2026-05-07 21:10 | 55.34332 | -119.52474 | 31969 ft | 421 kts | 301° |
| 2026-05-07 21:11 | 55.37309 | -119.61276 | 31967 ft | 422 kts | 301° |
| 2026-05-07 21:11 | 55.41807 | -119.74639 | 31963 ft | 423 kts | 301° |
| 2026-05-07 21:12 | 55.44801 | -119.83577 | 31951 ft | 424 kts | 301° |
| 2026-05-07 21:12 | 55.47790 | -119.92531 | 31967 ft | 424 kts | 301° |
| 2026-05-07 21:13 | 55.50739 | -120.01399 | 31969 ft | 424 kts | 301° |
| 2026-05-07 21:13 | 55.53696 | -120.10322 | 31968 ft | 424 kts | 301° |
| 2026-05-07 21:14 | 55.56664 | -120.19312 | 31943 ft | 423 kts | 301° |
| 2026-05-07 21:14 | 55.59623 | -120.28311 | 31939 ft | 423 kts | 301° |
| 2026-05-07 21:15 | 55.62569 | -120.37301 | 31941 ft | 422 kts | 301° |
| 2026-05-07 21:15 | 55.65506 | -120.46302 | 31944 ft | 422 kts | 300° |
| 2026-05-07 21:16 | 55.68422 | -120.55268 | 31936 ft | 414 kts | 301° |
| 2026-05-07 21:16 | 55.71267 | -120.64051 | 31962 ft | 410 kts | 300° |
| 2026-05-07 21:17 | 55.74110 | -120.72852 | 31964 ft | 412 kts | 300° |
| 2026-05-07 21:17 | 55.76934 | -120.81635 | 31966 ft | 413 kts | 300° |
| 2026-05-07 21:18 | 55.79779 | -120.90514 | 31963 ft | 413 kts | 300° |
| 2026-05-07 21:18 | 55.82143 | -120.97914 | 31960 ft | 414 kts | 300° |
| 2026-05-07 21:19 | 55.84946 | -121.06719 | 31964 ft | 414 kts | 300° |
| 2026-05-07 21:19 | 55.87770 | -121.15625 | 31982 ft | 413 kts | 300° |
| 2026-05-07 21:20 | 55.90594 | -121.24562 | 31965 ft | 414 kts | 300° |
| 2026-05-07 21:20 | 55.93412 | -121.33516 | 31969 ft | 414 kts | 300° |
| 2026-05-07 21:21 | 55.96220 | -121.42471 | 31956 ft | 413 kts | 300° |
| 2026-05-07 21:21 | 55.99001 | -121.51372 | 31957 ft | 413 kts | 300° |
| 2026-05-07 21:22 | 56.01788 | -121.60332 | 31968 ft | 413 kts | 300° |
| 2026-05-07 21:22 | 56.04545 | -121.69224 | 31966 ft | 405 kts | 300° |
| 2026-05-07 21:23 | 56.07265 | -121.78027 | 31956 ft | 404 kts | 300° |
| 2026-05-07 21:23 | 56.09982 | -121.86856 | 31951 ft | 405 kts | 299° |
| 2026-05-07 21:24 | 56.12697 | -121.95708 | 31957 ft | 406 kts | 299° |
| 2026-05-07 21:24 | 56.15374 | -122.04472 | 31950 ft | 406 kts | 299° |
| 2026-05-07 21:25 | 56.18080 | -122.13369 | 31949 ft | 406 kts | 299° |
| 2026-05-07 21:25 | 56.20783 | -122.22281 | 31957 ft | 406 kts | 299° |
| 2026-05-07 21:26 | 56.23482 | -122.31192 | 31931 ft | 405 kts | 299° |
| 2026-05-07 21:26 | 56.26176 | -122.40162 | 31944 ft | 407 kts | 298° |
| 2026-05-07 21:27 | 56.28844 | -122.49079 | 31943 ft | 406 kts | 298° |
| 2026-05-07 21:27 | 56.31515 | -122.58022 | 31936 ft | 405 kts | 298° |
| 2026-05-07 21:28 | 56.34202 | -122.66957 | 31943 ft | 405 kts | 299° |
| 2026-05-07 21:28 | 56.36880 | -122.75936 | 31962 ft | 406 kts | 298° |
| 2026-05-07 21:29 | 56.39495 | -122.84892 | 31939 ft | 401 kts | 298° |
| 2026-05-07 21:29 | 56.42087 | -122.93746 | 31937 ft | 397 kts | 298° |
| 2026-05-07 21:30 | 56.44645 | -123.02494 | 31951 ft | 399 kts | 298° |
| 2026-05-07 21:30 | 56.47223 | -123.11336 | 31964 ft | 400 kts | 297° |
| 2026-05-07 21:31 | 56.49824 | -123.20277 | 31952 ft | 403 kts | 297° |
| 2026-05-07 21:31 | 56.52402 | -123.29302 | 31954 ft | 404 kts | 297° |
| 2026-05-07 21:32 | 56.55016 | -123.38316 | 31973 ft | 403 kts | 297° |
| 2026-05-07 21:32 | 56.57604 | -123.47287 | 31968 ft | 400 kts | 297° |
| 2026-05-07 21:33 | 56.60176 | -123.56233 | 31969 ft | 399 kts | 297° |
| 2026-05-07 21:33 | 56.62737 | -123.65166 | 31989 ft | 399 kts | 297° |
| 2026-05-07 21:34 | 56.65266 | -123.74114 | 31982 ft | 402 kts | 297° |
| 2026-05-07 21:34 | 56.67831 | -123.83188 | 31976 ft | 403 kts | 297° |
| 2026-05-07 21:35 | 56.70390 | -123.92214 | 32007 ft | 397 kts | 297° |
| 2026-05-07 21:35 | 56.72896 | -124.01146 | 31956 ft | 405 kts | 296° |
| 2026-05-07 21:36 | 56.75445 | -124.10272 | 31875 ft | 400 kts | 298° |
| 2026-05-07 21:36 | 56.76764 | -124.14676 | 32027 ft | 396 kts | 297° |
| 2026-05-07 21:36 | 56.78030 | -124.19210 | 31937 ft | 403 kts | 296° |
| 2026-05-07 21:37 | 56.80473 | -124.28388 | 31934 ft | 405 kts | 295° |
| 2026-05-07 21:37 | 56.82961 | -124.37533 | 31923 ft | 403 kts | 296° |
| 2026-05-07 21:38 | 56.85519 | -124.46668 | 31973 ft | 403 kts | 296° |
| 2026-05-07 21:38 | 56.88042 | -124.55834 | 31969 ft | 404 kts | 296° |
| 2026-05-07 21:39 | 56.90546 | -124.65029 | 31996 ft | 403 kts | 296° |
| 2026-05-07 21:39 | 56.93054 | -124.74270 | 31961 ft | 406 kts | 296° |
| 2026-05-07 21:40 | 56.95550 | -124.83481 | 31966 ft | 407 kts | 296° |
| 2026-05-07 21:40 | 56.98063 | -124.92786 | 31998 ft | 405 kts | 296° |
| 2026-05-07 21:41 | 57.00518 | -125.01971 | 31963 ft | 406 kts | 294° |
| 2026-05-07 21:41 | 57.02783 | -125.11445 | 31976 ft | 404 kts | 292° |
| 2026-05-07 21:42 | 57.04966 | -125.20956 | 31977 ft | 406 kts | 292° |
| 2026-05-07 21:42 | 57.07181 | -125.30555 | 31979 ft | 409 kts | 292° |
| 2026-05-07 21:43 | 57.09390 | -125.40129 | 31979 ft | 410 kts | 292° |
| 2026-05-07 21:43 | 57.11621 | -125.49780 | 32004 ft | 411 kts | 292° |
| 2026-05-07 21:44 | 57.13848 | -125.59447 | 32013 ft | 409 kts | 292° |
| 2026-05-07 21:44 | 57.16048 | -125.69099 | 32011 ft | 408 kts | 292° |
| 2026-05-07 21:45 | 57.18252 | -125.78719 | 31998 ft | 406 kts | 292° |
| 2026-05-07 21:45 | 57.20426 | -125.88302 | 31998 ft | 405 kts | 292° |
| 2026-05-07 21:46 | 57.22599 | -125.97878 | 31997 ft | 405 kts | 292° |
| 2026-05-07 21:46 | 57.24725 | -126.07344 | 32024 ft | 404 kts | 291° |
| 2026-05-07 21:47 | 57.26877 | -126.16912 | 32050 ft | 403 kts | 291° |
| 2026-05-07 21:47 | 57.28998 | -126.26445 | 32056 ft | 404 kts | 291° |
| 2026-05-07 21:48 | 57.31147 | -126.36137 | 31997 ft | 410 kts | 291° |
| 2026-05-07 21:48 | 57.33300 | -126.45927 | 32018 ft | 411 kts | 291° |
| 2026-05-07 21:49 | 57.35468 | -126.55716 | 32024 ft | 409 kts | 291° |
| 2026-05-07 21:49 | 57.37606 | -126.65471 | 32053 ft | 407 kts | 291° |
| 2026-05-07 21:50 | 57.39725 | -126.75207 | 32025 ft | 407 kts | 290° |
| 2026-05-07 21:50 | 57.41828 | -126.84958 | 32033 ft | 410 kts | 290° |
| 2026-05-07 21:51 | 57.43937 | -126.94709 | 32012 ft | 408 kts | 290° |
| 2026-05-07 21:51 | 57.46019 | -127.04345 | 32065 ft | 405 kts | 290° |
| 2026-05-07 21:52 | 57.48105 | -127.14108 | 32016 ft | 406 kts | 290° |
| 2026-05-07 21:52 | 57.50186 | -127.23900 | 32052 ft | 406 kts | 290° |
| 2026-05-07 21:53 | 57.52254 | -127.33701 | 32048 ft | 408 kts | 290° |
| 2026-05-07 21:53 | 57.54324 | -127.43508 | 32038 ft | 409 kts | 290° |
| 2026-05-07 21:54 | 57.56415 | -127.53427 | 32038 ft | 410 kts | 289° |
| 2026-05-07 21:54 | 57.58476 | -127.63332 | 32048 ft | 412 kts | 289° |
| 2026-05-07 21:55 | 57.60539 | -127.73295 | 32041 ft | 413 kts | 289° |
| 2026-05-07 21:55 | 57.62604 | -127.83280 | 32058 ft | 413 kts | 289° |
| 2026-05-07 21:56 | 57.64654 | -127.93256 | 32068 ft | 413 kts | 289° |
| 2026-05-07 21:56 | 57.66683 | -128.03155 | 32057 ft | 412 kts | 289° |
| 2026-05-07 21:57 | 57.68725 | -128.13171 | 32038 ft | 410 kts | 289° |
| 2026-05-07 21:57 | 57.69739 | -128.18155 | 32218 ft | 410 kts | 289° |
| 2026-05-07 21:57 | 57.70748 | -128.23111 | 32824 ft | 403 kts | 289° |
| 2026-05-07 21:58 | 57.71722 | -128.27922 | 33361 ft | 398 kts | 288° |
| 2026-05-07 21:58 | 57.72692 | -128.32762 | 33857 ft | 396 kts | 288° |
| 2026-05-07 21:58 | 57.73658 | -128.37612 | 34101 ft | 398 kts | 288° |
| 2026-05-07 21:58 | 57.74626 | -128.42435 | 34544 ft | 392 kts | 288° |
| 2026-05-07 21:59 | 57.75587 | -128.47243 | 34703 ft | 395 kts | 288° |
| 2026-05-07 21:59 | 57.76554 | -128.52087 | 34865 ft | 397 kts | 288° |
| 2026-05-07 21:59 | 57.77523 | -128.56951 | 35124 ft | 399 kts | 288° |
| 2026-05-07 21:59 | 57.78486 | -128.61839 | 35333 ft | 401 kts | 288° |
| 2026-05-07 22:00 | 57.79456 | -128.66744 | 35623 ft | 400 kts | 288° |
| 2026-05-07 22:00 | 57.80423 | -128.71634 | 35868 ft | 400 kts | 288° |
| 2026-05-07 22:00 | 57.81393 | -128.76547 | 35989 ft | 404 kts | 288° |
| 2026-05-07 22:00 | 57.82355 | -128.81443 | 36037 ft | 406 kts | 288° |
| 2026-05-07 22:01 | 57.84303 | -128.91391 | 36076 ft | 405 kts | 288° |
| 2026-05-07 22:01 | 57.86217 | -129.01211 | 36080 ft | 405 kts | 288° |
| 2026-05-07 22:02 | 57.88146 | -129.11172 | 36091 ft | 406 kts | 288° |
| 2026-05-07 22:02 | 57.90073 | -129.21166 | 36079 ft | 407 kts | 287° |
| 2026-05-07 22:03 | 57.91997 | -129.31200 | 36091 ft | 407 kts | 287° |
| 2026-05-07 22:03 | 57.93912 | -129.41243 | 36118 ft | 408 kts | 287° |
| 2026-05-07 22:04 | 57.95828 | -129.51295 | 36092 ft | 408 kts | 287° |
| 2026-05-07 22:04 | 57.97405 | -129.59656 | 36103 ft | 407 kts | 287° |
| 2026-05-07 22:05 | 57.99284 | -129.69711 | 36092 ft | 407 kts | 287° |
| 2026-05-07 22:05 | 58.01470 | -129.81361 | 36132 ft | 405 kts | 287° |
| 2026-05-07 22:06 | 58.03018 | -129.89690 | 36110 ft | 404 kts | 286° |
| 2026-05-07 22:06 | 58.04869 | -129.99690 | 36108 ft | 403 kts | 286° |
| 2026-05-07 22:07 | 58.06687 | -130.09561 | 36126 ft | 403 kts | 286° |
| 2026-05-07 22:07 | 58.08521 | -130.19584 | 36120 ft | 404 kts | 286° |
| 2026-05-07 22:08 | 58.10354 | -130.29655 | 36118 ft | 405 kts | 286° |
| 2026-05-07 22:08 | 58.12183 | -130.39750 | 36131 ft | 406 kts | 286° |
| 2026-05-07 22:09 | 58.14009 | -130.49888 | 36154 ft | 408 kts | 286° |
| 2026-05-07 22:09 | 58.15836 | -130.60079 | 36133 ft | 408 kts | 286° |
| 2026-05-07 22:10 | 58.17644 | -130.70201 | 36138 ft | 408 kts | 286° |
| 2026-05-07 22:10 | 58.19450 | -130.80393 | 36134 ft | 408 kts | 286° |
| 2026-05-07 22:11 | 58.21246 | -130.90592 | 36134 ft | 407 kts | 286° |
| 2026-05-07 22:11 | 58.23010 | -131.00655 | 36138 ft | 406 kts | 285° |
| 2026-05-07 22:12 | 58.24787 | -131.10839 | 36140 ft | 406 kts | 285° |
| 2026-05-07 22:12 | 58.26559 | -131.21060 | 36144 ft | 407 kts | 285° |
| 2026-05-07 22:13 | 58.28313 | -131.31237 | 36145 ft | 407 kts | 285° |
| 2026-05-07 22:13 | 58.30071 | -131.41489 | 36165 ft | 407 kts | 285° |
| 2026-05-07 22:14 | 58.31810 | -131.51685 | 36164 ft | 407 kts | 285° |
| 2026-05-07 22:14 | 58.33624 | -131.61923 | 36171 ft | 408 kts | 286° |
| 2026-05-07 22:15 | 58.35505 | -131.72121 | 36202 ft | 408 kts | 286° |
| 2026-05-07 22:15 | 58.37379 | -131.82341 | 36180 ft | 409 kts | 285° |
| 2026-05-07 22:16 | 58.39239 | -131.92592 | 36198 ft | 409 kts | 285° |
| 2026-05-07 22:16 | 58.41056 | -132.02696 | 36183 ft | 409 kts | 285° |
| 2026-05-07 22:17 | 58.42891 | -132.12963 | 36218 ft | 409 kts | 285° |
| 2026-05-07 22:17 | 58.44725 | -132.23254 | 36204 ft | 409 kts | 285° |
| 2026-05-07 22:18 | 58.47451 | -132.38700 | 36262 ft | 408 kts | 285° |
| 2026-05-07 22:19 | 58.49254 | -132.48990 | 36247 ft | 408 kts | 285° |
| 2026-05-07 22:19 | 58.51035 | -132.59209 | 36249 ft | 408 kts | 285° |
| 2026-05-07 22:20 | 58.52819 | -132.69495 | 36256 ft | 407 kts | 284° |
| 2026-05-07 22:20 | 58.54593 | -132.79795 | 36266 ft | 409 kts | 284° |
| 2026-05-07 22:21 | 58.56370 | -132.90161 | 36275 ft | 410 kts | 284° |
| 2026-05-07 22:21 | 58.58120 | -133.00397 | 36282 ft | 409 kts | 284° |
| 2026-05-07 22:22 | 58.59879 | -133.10783 | 36292 ft | 410 kts | 284° |
| 2026-05-07 22:22 | 58.61633 | -133.21197 | 36277 ft | 411 kts | 284° |
| 2026-05-07 22:23 | 58.63383 | -133.31635 | 36280 ft | 411 kts | 284° |
| 2026-05-07 22:23 | 58.65122 | -133.42082 | 36278 ft | 411 kts | 284° |
| 2026-05-07 22:24 | 58.66858 | -133.52576 | 36254 ft | 412 kts | 284° |
| 2026-05-07 22:24 | 58.68585 | -133.63049 | 36275 ft | 411 kts | 284° |
| 2026-05-07 22:25 | 58.70300 | -133.73514 | 36295 ft | 410 kts | 283° |
| 2026-05-07 22:25 | 58.72001 | -133.83980 | 36267 ft | 409 kts | 283° |
| 2026-05-07 22:26 | 58.73689 | -133.94446 | 36266 ft | 410 kts | 283° |
| 2026-05-07 22:26 | 58.75337 | -134.04681 | 36278 ft | 409 kts | 283° |
| 2026-05-07 22:27 | 58.77008 | -134.15127 | 36300 ft | 408 kts | 283° |
| 2026-05-07 22:27 | 58.78659 | -134.25524 | 36294 ft | 408 kts | 283° |
| 2026-05-07 22:28 | 58.80314 | -134.35989 | 36285 ft | 408 kts | 283° |
| 2026-05-07 22:28 | 58.81959 | -134.46483 | 36278 ft | 409 kts | 282° |
| 2026-05-07 22:29 | 58.83601 | -134.57012 | 36263 ft | 410 kts | 282° |
| 2026-05-07 22:29 | 58.85233 | -134.67555 | 36265 ft | 410 kts | 282° |
| 2026-05-07 22:30 | 58.86863 | -134.78138 | 36246 ft | 411 kts | 282° |
| 2026-05-07 22:30 | 58.88487 | -134.88751 | 36255 ft | 412 kts | 282° |
| 2026-05-07 22:31 | 58.90110 | -134.99388 | 36272 ft | 413 kts | 282° |
| 2026-05-07 22:31 | 58.91705 | -135.09944 | 36232 ft | 414 kts | 282° |
| 2026-05-07 22:32 | 58.93307 | -135.20646 | 36224 ft | 414 kts | 282° |
| 2026-05-07 22:32 | 58.94901 | -135.31316 | 36235 ft | 412 kts | 281° |
| 2026-05-07 22:33 | 58.96478 | -135.41960 | 36244 ft | 411 kts | 281° |
| 2026-05-07 22:33 | 58.98049 | -135.52635 | 36235 ft | 412 kts | 281° |
| 2026-05-07 22:34 | 58.99610 | -135.63313 | 36235 ft | 412 kts | 281° |
| 2026-05-07 22:34 | 59.01160 | -135.74000 | 36237 ft | 413 kts | 281° |
| 2026-05-07 22:35 | 59.02711 | -135.84719 | 36234 ft | 413 kts | 281° |
| 2026-05-07 22:35 | 59.04249 | -135.95454 | 36231 ft | 412 kts | 281° |
| 2026-05-07 22:36 | 59.05761 | -136.06057 | 36253 ft | 411 kts | 281° |
| 2026-05-07 22:36 | 59.07276 | -136.16775 | 36253 ft | 411 kts | 281° |
| 2026-05-07 22:37 | 59.08773 | -136.27415 | 36262 ft | 410 kts | 281° |
| 2026-05-07 22:37 | 59.10267 | -136.38153 | 36274 ft | 413 kts | 280° |
| 2026-05-07 22:38 | 59.11763 | -136.48886 | 36252 ft | 409 kts | 280° |
| 2026-05-07 22:38 | 59.13238 | -136.59627 | 36256 ft | 410 kts | 280° |
| 2026-05-07 22:39 | 59.14707 | -136.70379 | 36275 ft | 412 kts | 280° |
| 2026-05-07 22:39 | 59.16179 | -136.81213 | 36265 ft | 413 kts | 280° |
| 2026-05-07 22:40 | 59.17641 | -136.92047 | 36274 ft | 414 kts | 279° |
| 2026-05-07 22:40 | 59.19073 | -137.02739 | 36273 ft | 415 kts | 279° |
| 2026-05-07 22:41 | 59.20528 | -137.13683 | 36274 ft | 416 kts | 279° |
| 2026-05-07 22:41 | 59.21970 | -137.24608 | 36273 ft | 417 kts | 279° |
| 2026-05-07 22:42 | 59.23412 | -137.35597 | 36260 ft | 416 kts | 279° |
| 2026-05-07 22:42 | 59.24830 | -137.46487 | 36273 ft | 414 kts | 279° |
| 2026-05-07 22:43 | 59.26240 | -137.57403 | 36270 ft | 414 kts | 279° |
| 2026-05-07 22:43 | 59.27633 | -137.68264 | 36311 ft | 413 kts | 279° |
| 2026-05-07 22:44 | 59.29028 | -137.79220 | 36261 ft | 414 kts | 279° |
| 2026-05-07 22:44 | 59.30407 | -137.90138 | 36276 ft | 416 kts | 278° |
| 2026-05-07 22:45 | 59.31775 | -138.01055 | 36286 ft | 418 kts | 278° |
| 2026-05-07 22:45 | 59.33151 | -138.12111 | 36246 ft | 420 kts | 278° |
| 2026-05-07 22:46 | 59.34526 | -138.23203 | 36287 ft | 421 kts | 278° |
| 2026-05-07 22:46 | 59.35898 | -138.34417 | 36272 ft | 421 kts | 278° |
| 2026-05-07 22:47 | 59.37249 | -138.45514 | 36265 ft | 419 kts | 278° |
| 2026-05-07 22:47 | 59.38593 | -138.56641 | 36265 ft | 419 kts | 278° |
| 2026-05-07 22:48 | 59.39920 | -138.67750 | 36255 ft | 419 kts | 278° |
| 2026-05-07 22:48 | 59.41243 | -138.78881 | 36257 ft | 420 kts | 277° |
| 2026-05-07 22:49 | 59.42565 | -138.90065 | 36261 ft | 420 kts | 277° |
| 2026-05-07 22:49 | 59.43857 | -139.01133 | 36243 ft | 420 kts | 277° |
| 2026-05-07 22:50 | 59.45149 | -139.12289 | 36277 ft | 421 kts | 277° |
| 2026-05-07 22:50 | 59.46445 | -139.23548 | 36221 ft | 421 kts | 277° |
| 2026-05-07 22:51 | 59.47725 | -139.34766 | 36246 ft | 421 kts | 277° |
| 2026-05-07 22:51 | 59.48999 | -139.46028 | 36240 ft | 421 kts | 277° |
| 2026-05-07 22:52 | 59.50260 | -139.57244 | 36241 ft | 421 kts | 277° |
| 2026-05-07 22:52 | 59.51684 | -139.68482 | 36229 ft | 425 kts | 282° |
| 2026-05-07 22:53 | 59.53328 | -139.78145 | 36281 ft | 426 kts | 282° |
| 2026-05-07 22:53 | 59.55068 | -139.88326 | 36243 ft | 426 kts | 282° |
| 2026-05-07 22:54 | 59.56787 | -139.98486 | 36235 ft | 426 kts | 282° |
| 2026-05-07 22:54 | 59.58517 | -140.08817 | 36233 ft | 426 kts | 282° |
| 2026-05-07 22:55 | 59.60038 | -140.17974 | 36233 ft | 425 kts | 282° |
| 2026-05-07 22:55 | 59.61875 | -140.29095 | 36232 ft | 425 kts | 282° |
| 2026-05-07 22:56 | 59.63696 | -140.40195 | 36233 ft | 424 kts | 281° |
| 2026-05-07 22:56 | 59.65510 | -140.51323 | 36235 ft | 425 kts | 281° |
| 2026-05-07 22:57 | 59.67306 | -140.62409 | 36235 ft | 425 kts | 281° |
| 2026-05-07 22:57 | 59.69107 | -140.73592 | 36229 ft | 426 kts | 281° |
| 2026-05-07 22:58 | 59.70886 | -140.84715 | 36225 ft | 426 kts | 281° |
| 2026-05-07 22:58 | 59.72667 | -140.95910 | 36205 ft | 426 kts | 281° |
| 2026-05-07 22:59 | 59.74414 | -141.06972 | 36260 ft | 426 kts | 281° |
| 2026-05-07 22:59 | 59.76180 | -141.18230 | 36238 ft | 428 kts | 281° |
| 2026-05-07 23:00 | 59.77942 | -141.29527 | 36236 ft | 428 kts | 281° |
| 2026-05-07 23:00 | 59.79697 | -141.40854 | 36216 ft | 429 kts | 281° |
| 2026-05-07 23:01 | 59.81430 | -141.52113 | 36235 ft | 429 kts | 281° |
| 2026-05-07 23:01 | 59.83166 | -141.63464 | 36232 ft | 429 kts | 281° |
| 2026-05-07 23:02 | 59.84893 | -141.74842 | 36251 ft | 430 kts | 281° |
| 2026-05-07 23:02 | 59.86615 | -141.86259 | 36230 ft | 431 kts | 281° |
| 2026-05-07 23:03 | 59.88330 | -141.97703 | 36212 ft | 431 kts | 280° |
| 2026-05-07 23:03 | 59.90009 | -142.08986 | 36213 ft | 430 kts | 280° |
| 2026-05-07 23:04 | 59.91689 | -142.20348 | 36219 ft | 429 kts | 280° |
| 2026-05-07 23:04 | 59.93367 | -142.31781 | 36207 ft | 429 kts | 280° |
| 2026-05-07 23:05 | 59.95037 | -142.43242 | 36219 ft | 431 kts | 280° |
| 2026-05-07 23:05 | 59.96692 | -142.54682 | 36217 ft | 432 kts | 280° |
| 2026-05-07 23:06 | 59.98352 | -142.66226 | 36208 ft | 432 kts | 280° |
| 2026-05-07 23:06 | 60.00002 | -142.77783 | 36211 ft | 433 kts | 280° |
| 2026-05-07 23:07 | 60.01644 | -142.89374 | 36213 ft | 434 kts | 280° |
| 2026-05-07 23:07 | 60.03258 | -143.00843 | 36209 ft | 434 kts | 280° |
| 2026-05-07 23:08 | 60.04890 | -143.12530 | 36214 ft | 437 kts | 280° |
| 2026-05-07 23:08 | 60.06507 | -143.24197 | 36206 ft | 438 kts | 280° |
| 2026-05-07 23:09 | 60.08131 | -143.35996 | 36206 ft | 439 kts | 280° |
| 2026-05-07 23:09 | 60.09746 | -143.47809 | 36204 ft | 440 kts | 280° |
| 2026-05-07 23:10 | 60.11352 | -143.59650 | 36201 ft | 440 kts | 279° |
| 2026-05-07 23:10 | 60.12949 | -143.71513 | 36203 ft | 440 kts | 279° |
| 2026-05-07 23:11 | 60.14533 | -143.83373 | 36204 ft | 440 kts | 279° |
| 2026-05-07 23:11 | 60.16107 | -143.95244 | 36202 ft | 439 kts | 279° |
| 2026-05-07 23:12 | 60.17638 | -144.06887 | 36198 ft | 439 kts | 279° |
| 2026-05-07 23:12 | 60.19186 | -144.18746 | 36200 ft | 438 kts | 279° |
| 2026-05-07 23:13 | 60.20724 | -144.30623 | 36204 ft | 437 kts | 279° |
| 2026-05-07 23:13 | 60.22247 | -144.42482 | 36214 ft | 440 kts | 279° |
| 2026-05-07 23:14 | 60.23764 | -144.54383 | 36191 ft | 442 kts | 279° |
| 2026-05-07 23:14 | 60.25284 | -144.66383 | 36210 ft | 443 kts | 279° |
| 2026-05-07 23:15 | 60.26800 | -144.78473 | 36170 ft | 446 kts | 279° |
| 2026-05-07 23:15 | 60.28306 | -144.90583 | 36186 ft | 445 kts | 279° |
| 2026-05-07 23:16 | 60.29780 | -145.02525 | 36191 ft | 444 kts | 279° |
| 2026-05-07 23:16 | 60.31251 | -145.14554 | 36198 ft | 444 kts | 279° |
| 2026-05-07 23:17 | 60.32723 | -145.26658 | 36189 ft | 444 kts | 279° |
| 2026-05-07 23:17 | 60.34183 | -145.38794 | 36185 ft | 445 kts | 279° |
| 2026-05-07 23:18 | 60.35636 | -145.50966 | 36185 ft | 445 kts | 279° |
| 2026-05-07 23:18 | 60.37077 | -145.63138 | 36182 ft | 446 kts | 278° |
| 2026-05-07 23:19 | 60.38510 | -145.75337 | 36211 ft | 446 kts | 279° |
| 2026-05-07 23:19 | 60.39935 | -145.87583 | 36190 ft | 448 kts | 279° |
| 2026-05-07 23:20 | 60.41353 | -145.99867 | 36115 ft | 446 kts | 278° |
| 2026-05-07 23:20 | 60.42036 | -146.05820 | 35902 ft | 446 kts | 278° |
| 2026-05-07 23:20 | 60.42725 | -146.11856 | 35639 ft | 446 kts | 278° |
| 2026-05-07 23:20 | 60.43420 | -146.17975 | 35367 ft | 446 kts | 278° |
| 2026-05-07 23:21 | 60.44112 | -146.24090 | 35119 ft | 445 kts | 278° |
| 2026-05-07 23:21 | 60.44801 | -146.30209 | 34889 ft | 444 kts | 278° |
| 2026-05-07 23:21 | 60.45485 | -146.36309 | 34639 ft | 441 kts | 277° |
| 2026-05-07 23:21 | 60.46160 | -146.42344 | 34134 ft | 437 kts | 277° |
| 2026-05-07 23:22 | 60.46828 | -146.48347 | 33477 ft | 435 kts | 277° |
| 2026-05-07 23:22 | 60.47487 | -146.54303 | 32872 ft | 431 kts | 277° |
| 2026-05-07 23:22 | 60.48356 | -146.60097 | 32368 ft | 431 kts | 288° |
| 2026-05-07 23:22 | 60.49906 | -146.65328 | 31856 ft | 435 kts | 301° |
| 2026-05-07 23:23 | 60.51744 | -146.70093 | 31318 ft | 432 kts | 301° |
| 2026-05-07 23:23 | 60.53578 | -146.74892 | 30815 ft | 428 kts | 300° |
| 2026-05-07 23:23 | 60.55375 | -146.79683 | 30344 ft | 423 kts | 300° |
| 2026-05-07 23:23 | 60.57141 | -146.84463 | 29823 ft | 418 kts | 299° |
| 2026-05-07 23:24 | 60.58870 | -146.89193 | 29271 ft | 414 kts | 299° |
| 2026-05-07 23:24 | 60.60582 | -146.93897 | 28693 ft | 411 kts | 300° |
| 2026-05-07 23:24 | 60.62284 | -146.98577 | 28137 ft | 409 kts | 300° |
| 2026-05-07 23:24 | 60.63908 | -147.03047 | 27664 ft | 406 kts | 300° |
| 2026-05-07 23:25 | 60.65577 | -147.07684 | 27140 ft | 403 kts | 299° |
| 2026-05-07 23:25 | 60.67212 | -147.12300 | 26644 ft | 400 kts | 299° |
| 2026-05-07 23:25 | 60.68824 | -147.16887 | 26158 ft | 397 kts | 299° |
| 2026-05-07 23:25 | 60.70427 | -147.21462 | 25663 ft | 394 kts | 299° |
| 2026-05-07 23:26 | 60.72017 | -147.26006 | 25173 ft | 392 kts | 300° |
| 2026-05-07 23:26 | 60.73595 | -147.30522 | 24690 ft | 389 kts | 300° |
| 2026-05-07 23:26 | 60.75166 | -147.35021 | 24221 ft | 387 kts | 300° |
| 2026-05-07 23:26 | 60.76727 | -147.39496 | 23773 ft | 385 kts | 300° |
| 2026-05-07 23:27 | 60.79814 | -147.48373 | 22731 ft | 380 kts | 300° |
| 2026-05-07 23:27 | 60.81339 | -147.52766 | 22285 ft | 377 kts | 300° |
| 2026-05-07 23:27 | 60.82846 | -147.57115 | 21869 ft | 373 kts | 300° |
| 2026-05-07 23:28 | 60.84323 | -147.61387 | 21367 ft | 371 kts | 300° |
| 2026-05-07 23:28 | 60.85812 | -147.65707 | 20874 ft | 370 kts | 300° |
| 2026-05-07 23:28 | 60.87294 | -147.70014 | 20395 ft | 369 kts | 300° |
| 2026-05-07 23:28 | 60.88767 | -147.74301 | 19952 ft | 367 kts | 300° |
| 2026-05-07 23:29 | 60.90234 | -147.78575 | 19492 ft | 364 kts | 300° |
| 2026-05-07 23:29 | 60.91692 | -147.82812 | 18959 ft | 363 kts | 300° |
| 2026-05-07 23:29 | 60.93136 | -147.87056 | 18531 ft | 361 kts | 300° |
| 2026-05-07 23:29 | 60.94575 | -147.91286 | 18013 ft | 360 kts | 300° |
| 2026-05-07 23:30 | 60.96005 | -147.95505 | 17579 ft | 358 kts | 300° |
| 2026-05-07 23:30 | 60.97420 | -147.99673 | 17107 ft | 357 kts | 301° |
| 2026-05-07 23:30 | 60.98808 | -148.03743 | 16697 ft | 355 kts | 301° |
| 2026-05-07 23:30 | 61.00217 | -148.07886 | 16315 ft | 352 kts | 300° |
| 2026-05-07 23:31 | 61.01613 | -148.12010 | 15946 ft | 348 kts | 300° |
| 2026-05-07 23:31 | 61.02971 | -148.16025 | 16061 ft | 338 kts | 300° |
| 2026-05-07 23:31 | 61.04331 | -148.20067 | 16147 ft | 348 kts | 300° |
| 2026-05-07 23:31 | 61.05727 | -148.24231 | 16164 ft | 353 kts | 300° |
| 2026-05-07 23:32 | 61.07124 | -148.28393 | 16146 ft | 352 kts | 300° |
| 2026-05-07 23:32 | 61.08516 | -148.32547 | 16144 ft | 351 kts | 300° |
| 2026-05-07 23:32 | 61.09904 | -148.36696 | 16150 ft | 351 kts | 300° |
| 2026-05-07 23:32 | 61.11290 | -148.40840 | 16155 ft | 350 kts | 300° |
| 2026-05-07 23:33 | 61.12673 | -148.44986 | 16172 ft | 351 kts | 300° |
| 2026-05-07 23:33 | 61.14037 | -148.49170 | 15988 ft | 349 kts | 296° |
| 2026-05-07 23:33 | 61.15036 | -148.53735 | 15581 ft | 352 kts | 286° |
| 2026-05-07 23:33 | 61.15851 | -148.58657 | 15371 ft | 369 kts | 285° |
| 2026-05-07 23:34 | 61.16671 | -148.63620 | 15120 ft | 365 kts | 285° |
| 2026-05-07 23:34 | 61.17509 | -148.68578 | 14898 ft | 366 kts | 285° |
| 2026-05-07 23:34 | 61.18360 | -148.73573 | 14655 ft | 370 kts | 286° |
| 2026-05-07 23:34 | 61.19227 | -148.78601 | 14402 ft | 371 kts | 286° |
| 2026-05-07 23:35 | 61.20099 | -148.83643 | 14150 ft | 371 kts | 286° |
| 2026-05-07 23:35 | 61.20976 | -148.88676 | 13908 ft | 369 kts | 286° |
| 2026-05-07 23:35 | 61.21847 | -148.93669 | 13651 ft | 366 kts | 286° |
| 2026-05-07 23:35 | 61.22710 | -148.98627 | 13426 ft | 364 kts | 286° |
| 2026-05-07 23:36 | 61.23540 | -149.03408 | 13250 ft | 360 kts | 286° |
| 2026-05-07 23:36 | 61.24364 | -149.08319 | 12955 ft | 354 kts | 283° |
| 2026-05-07 23:36 | 61.24891 | -149.13368 | 12683 ft | 362 kts | 275° |
| 2026-05-07 23:36 | 61.25163 | -149.18566 | 12335 ft | 360 kts | 272° |
| 2026-05-07 23:37 | 61.25383 | -149.23670 | 12152 ft | 361 kts | 272° |
| 2026-05-07 23:37 | 61.25637 | -149.28868 | 11833 ft | 361 kts | 273° |
| 2026-05-07 23:37 | 61.25924 | -149.34019 | 11548 ft | 357 kts | 274° |
| 2026-05-07 23:37 | 61.26222 | -149.39088 | 11251 ft | 349 kts | 274° |
| 2026-05-07 23:38 | 61.26515 | -149.44038 | 10991 ft | 340 kts | 274° |
| 2026-05-07 23:38 | 61.26796 | -149.48856 | 10714 ft | 331 kts | 274° |
| 2026-05-07 23:38 | 61.27065 | -149.53547 | 10465 ft | 323 kts | 274° |
| 2026-05-07 23:38 | 61.27326 | -149.58039 | 10208 ft | 303 kts | 274° |
| 2026-05-07 23:39 | 61.27567 | -149.62250 | 9971 ft | 284 kts | 273° |
| 2026-05-07 23:39 | 61.27791 | -149.66222 | 9731 ft | 271 kts | 273° |
| 2026-05-07 23:39 | 61.28013 | -149.70081 | 9560 ft | 269 kts | 275° |
| 2026-05-07 23:39 | 61.28656 | -149.73776 | 9408 ft | 279 kts | 297° |
| 2026-05-07 23:40 | 61.29694 | -149.77138 | 9299 ft | 278 kts | 300° |
| 2026-05-07 23:40 | 61.30734 | -149.80539 | 8990 ft | 276 kts | 299° |
| 2026-05-07 23:40 | 61.31744 | -149.83928 | 8583 ft | 275 kts | 298° |
| 2026-05-07 23:40 | 61.32738 | -149.87310 | 8163 ft | 272 kts | 298° |
| 2026-05-07 23:41 | 61.33718 | -149.90664 | 7762 ft | 268 kts | 298° |
| 2026-05-07 23:41 | 61.34692 | -149.93891 | 7352 ft | 260 kts | 305° |
| 2026-05-07 23:41 | 61.35555 | -149.95588 | 7056 ft | 258 kts | 326° |
| 2026-05-07 23:41 | 61.37200 | -149.96926 | 6697 ft | 252 kts | 345° |
| 2026-05-07 23:42 | 61.39450 | -149.98185 | 6189 ft | 253 kts | 343° |
| 2026-05-07 23:42 | 61.41139 | -149.99246 | 5772 ft | 253 kts | 338° |
| 2026-05-07 23:42 | 61.42699 | -150.00707 | 5381 ft | 252 kts | 339° |
| 2026-05-07 23:42 | 61.43830 | -150.01435 | 5115 ft | 251 kts | 344° |
| 2026-05-07 23:43 | 61.45496 | -150.02318 | 4739 ft | 243 kts | 345° |
| 2026-05-07 23:43 | 61.47099 | -150.03172 | 4305 ft | 233 kts | 344° |
| 2026-05-07 23:43 | 61.48611 | -150.04030 | 4002 ft | 221 kts | 343° |
| 2026-05-07 23:43 | 61.50055 | -150.04885 | 4038 ft | 217 kts | 342° |
| 2026-05-07 23:44 | 61.51521 | -150.05840 | 4006 ft | 222 kts | 335° |
| 2026-05-07 23:44 | 61.52660 | -150.07873 | 3992 ft | 214 kts | 297° |
| 2026-05-07 23:44 | 61.52960 | -150.10701 | 3976 ft | 189 kts | 257° |
| 2026-05-07 23:44 | 61.52379 | -150.12927 | 3975 ft | 169 kts | 215° |
| 2026-05-07 23:45 | 61.51359 | -150.14013 | 4000 ft | 166 kts | 200° |
| 2026-05-07 23:45 | 61.50251 | -150.14729 | 3994 ft | 166 kts | 192° |
| 2026-05-07 23:45 | 61.49121 | -150.15110 | 4011 ft | 162 kts | 185° |
| 2026-05-07 23:45 | 61.47999 | -150.15225 | 4000 ft | 163 kts | 180° |
| 2026-05-07 23:46 | 61.46853 | -150.15158 | 3999 ft | 166 kts | 177° |
| 2026-05-07 23:46 | 61.45704 | -150.14963 | 3999 ft | 166 kts | 174° |
| 2026-05-07 23:46 | 61.44580 | -150.14674 | 3982 ft | 164 kts | 174° |
| 2026-05-07 23:46 | 61.43462 | -150.14363 | 3986 ft | 160 kts | 172° |
| 2026-05-07 23:47 | 61.42352 | -150.13928 | 3995 ft | 164 kts | 169° |
| 2026-05-07 23:47 | 61.41228 | -150.13383 | 4000 ft | 167 kts | 167° |
| 2026-05-07 23:47 | 61.40114 | -150.12791 | 3987 ft | 164 kts | 166° |
| 2026-05-07 23:47 | 61.39014 | -150.12183 | 3995 ft | 164 kts | 166° |
| 2026-05-07 23:48 | 61.37902 | -150.11559 | 4007 ft | 165 kts | 166° |
| 2026-05-07 23:48 | 61.36784 | -150.10927 | 3960 ft | 169 kts | 166° |
| 2026-05-07 23:48 | 61.35657 | -150.10287 | 3697 ft | 165 kts | 166° |
| 2026-05-07 23:48 | 61.34569 | -150.09672 | 3462 ft | 160 kts | 166° |
| 2026-05-07 23:49 | 61.33509 | -150.09072 | 3228 ft | 160 kts | 166° |
| 2026-05-07 23:49 | 61.32428 | -150.08462 | 2993 ft | 161 kts | 166° |
| 2026-05-07 23:49 | 61.31348 | -150.07852 | 2749 ft | 159 kts | 166° |
| 2026-05-07 23:49 | 61.30321 | -150.07272 | 2503 ft | 146 kts | 166° |
| 2026-05-07 23:50 | 61.29377 | -150.06737 | 2296 ft | 136 kts | 167° |
| 2026-05-07 23:50 | 61.28462 | -150.06224 | 2119 ft | 138 kts | 167° |
| 2026-05-07 23:50 | 61.27533 | -150.05700 | 1912 ft | 138 kts | 167° |
| 2026-05-07 23:50 | 61.26603 | -150.05176 | 1708 ft | 139 kts | 167° |
| 2026-05-07 23:51 | 61.25668 | -150.04651 | 1505 ft | 140 kts | 166° |
| 2026-05-07 23:51 | 61.24731 | -150.04125 | 1290 ft | 138 kts | 167° |
| 2026-05-07 23:51 | 61.23805 | -150.03602 | 1063 ft | 137 kts | 167° |
| 2026-05-07 23:51 | 61.22881 | -150.03090 | 899 ft | 138 kts | 168° |
| 2026-05-07 23:52 | 61.21921 | -150.02588 | 702 ft | 141 kts | 166° |
| 2026-05-07 23:52 | 61.20999 | -150.02002 | 412 ft | 136 kts | 164° |
| 2026-05-07 23:52 | 61.20121 | -150.01518 | 205 ft | 127 kts | 164° |
| 2026-05-07 23:52 | 61.19295 | -150.01053 | 152 ft | 120 kts | 165° |
| 2026-05-07 23:53 | 61.18557 | -150.00648 | 133 ft | 97 kts | 165° |
| 2026-05-07 23:53 | 61.18019 | -150.00351 | 123 ft | 49 kts | 165° |
| 2026-05-07 23:53 | 61.17705 | -150.00210 | 124 ft | 33 kts | 179° |
| 2026-05-07 23:53 | 61.17550 | -150.00354 | 127 ft | 8 kts | 272° |
| 2026-05-07 23:54 | 61.17625 | -150.00440 | 129 ft | 25 kts | 343° |
| 2026-05-07 23:54 | 61.17803 | -150.00543 | 123 ft | 29 kts | 345° |
| 2026-05-07 23:54 | 61.17996 | -150.00653 | 126 ft | 29 kts | 345° |
| 2026-05-07 23:54 | 61.18190 | -150.00759 | 125 ft | 29 kts | 346° |
| 2026-05-07 23:55 | 61.18384 | -150.00861 | 131 ft | 29 kts | 345° |
| 2026-05-07 23:55 | 61.18576 | -150.00967 | 137 ft | 29 kts | 345° |
| 2026-05-07 23:55 | 61.18630 | -150.00997 | 138 ft | 0 kts | 345° |
| 2026-05-07 23:55 | 61.18631 | -150.00997 | 138 ft | 0 kts | 345° |